<?xml version="1.0" encoding="UTF-8" standalone="no" ?>
<gpx xmlns="http://www.topografix.com/GPX/1/1" xmlns:xsi="http://www.w3.org/2001/XMLSchema-instance" xsi:schemaLocation="http://www.topografix.com/GPX/1/1 http://www.topografix.com/GPX/1/1/gpx.xsd" version="1.1" creator="VisuGPX - https://www.visugpx.com">
  <metadata>
    <name>Scierie de Machet</name>
    <desc><![CDATA[Scierie de Machet, route forestière de Mauvais, les Hauts de Chaumont, croix Erhart, ruines de la scierie du Marquis, canal d'alimentation de la scierie hydraulique de Machet]]></desc>
  </metadata>
  <trk>
    <name><![CDATA[2018-08-02 17:50:15]]></name>
    <trkseg>
      <trkpt lat="48.5281" lon="7.01128">
        <ele>376.01</ele>
        <time>2018-08-02T12:01:03Z</time>
      </trkpt>
      <trkpt lat="48.52806" lon="7.01129">
        <ele>374.57</ele>
        <time>2018-08-02T12:01:37Z</time>
      </trkpt>
      <trkpt lat="48.52801" lon="7.01139">
        <ele>375.05</ele>
        <time>2018-08-02T12:02:16Z</time>
      </trkpt>
      <trkpt lat="48.52796" lon="7.01144">
        <ele>375.53</ele>
        <time>2018-08-02T12:02:35Z</time>
      </trkpt>
      <trkpt lat="48.52787" lon="7.01147">
        <ele>376.01</ele>
        <time>2018-08-02T12:02:48Z</time>
      </trkpt>
      <trkpt lat="48.52779" lon="7.0114">
        <ele>375.05</ele>
        <time>2018-08-02T12:03:00Z</time>
      </trkpt>
      <trkpt lat="48.52772" lon="7.01135">
        <ele>376.01</ele>
        <time>2018-08-02T12:03:27Z</time>
      </trkpt>
      <trkpt lat="48.52769" lon="7.01136">
        <ele>375.53</ele>
        <time>2018-08-02T12:04:02Z</time>
      </trkpt>
      <trkpt lat="48.52766" lon="7.01127">
        <ele>375.53</ele>
        <time>2018-08-02T12:04:16Z</time>
      </trkpt>
      <trkpt lat="48.52761" lon="7.01116">
        <ele>375.53</ele>
        <time>2018-08-02T12:04:25Z</time>
      </trkpt>
      <trkpt lat="48.52755" lon="7.01106">
        <ele>376.01</ele>
        <time>2018-08-02T12:04:35Z</time>
      </trkpt>
      <trkpt lat="48.5275" lon="7.01096">
        <ele>376.49</ele>
        <time>2018-08-02T12:04:54Z</time>
      </trkpt>
      <trkpt lat="48.52745" lon="7.01085">
        <ele>376.49</ele>
        <time>2018-08-02T12:05:04Z</time>
      </trkpt>
      <trkpt lat="48.52739" lon="7.01074">
        <ele>376.97</ele>
        <time>2018-08-02T12:05:15Z</time>
      </trkpt>
      <trkpt lat="48.52732" lon="7.01062">
        <ele>377.45</ele>
        <time>2018-08-02T12:05:27Z</time>
      </trkpt>
      <trkpt lat="48.52723" lon="7.01053">
        <ele>377.94</ele>
        <time>2018-08-02T12:05:38Z</time>
      </trkpt>
      <trkpt lat="48.52714" lon="7.01043">
        <ele>378.42</ele>
        <time>2018-08-02T12:05:49Z</time>
      </trkpt>
      <trkpt lat="48.52706" lon="7.01035">
        <ele>379.38</ele>
        <time>2018-08-02T12:05:59Z</time>
      </trkpt>
      <trkpt lat="48.52698" lon="7.01026">
        <ele>379.86</ele>
        <time>2018-08-02T12:06:10Z</time>
      </trkpt>
      <trkpt lat="48.52687" lon="7.01018">
        <ele>380.34</ele>
        <time>2018-08-02T12:06:22Z</time>
      </trkpt>
      <trkpt lat="48.52678" lon="7.01009">
        <ele>380.82</ele>
        <time>2018-08-02T12:06:38Z</time>
      </trkpt>
      <trkpt lat="48.52657" lon="7.01">
        <ele>381.78</ele>
        <time>2018-08-02T12:06:55Z</time>
      </trkpt>
      <trkpt lat="48.52639" lon="7.00984">
        <ele>383.22</ele>
        <time>2018-08-02T12:07:19Z</time>
      </trkpt>
      <trkpt lat="48.52621" lon="7.00981">
        <ele>384.66</ele>
        <time>2018-08-02T12:07:34Z</time>
      </trkpt>
      <trkpt lat="48.52609" lon="7.00976">
        <ele>385.15</ele>
        <time>2018-08-02T12:07:47Z</time>
      </trkpt>
      <trkpt lat="48.52587" lon="7.00968">
        <ele>386.59</ele>
        <time>2018-08-02T12:08:03Z</time>
      </trkpt>
      <trkpt lat="48.5257" lon="7.00958">
        <ele>387.55</ele>
        <time>2018-08-02T12:08:17Z</time>
      </trkpt>
      <trkpt lat="48.52554" lon="7.00941">
        <ele>388.99</ele>
        <time>2018-08-02T12:08:42Z</time>
      </trkpt>
      <trkpt lat="48.52528" lon="7.00927">
        <ele>389.95</ele>
        <time>2018-08-02T12:09:01Z</time>
      </trkpt>
      <trkpt lat="48.52511" lon="7.00918">
        <ele>390.91</ele>
        <time>2018-08-02T12:09:11Z</time>
      </trkpt>
      <trkpt lat="48.52503" lon="7.00909">
        <ele>391.39</ele>
        <time>2018-08-02T12:09:21Z</time>
      </trkpt>
      <trkpt lat="48.52492" lon="7.00898">
        <ele>391.87</ele>
        <time>2018-08-02T12:09:33Z</time>
      </trkpt>
      <trkpt lat="48.52479" lon="7.00888">
        <ele>392.84</ele>
        <time>2018-08-02T12:09:43Z</time>
      </trkpt>
      <trkpt lat="48.52471" lon="7.00878">
        <ele>393.32</ele>
        <time>2018-08-02T12:09:53Z</time>
      </trkpt>
      <trkpt lat="48.52462" lon="7.0087">
        <ele>393.8</ele>
        <time>2018-08-02T12:10:02Z</time>
      </trkpt>
      <trkpt lat="48.52451" lon="7.0086">
        <ele>394.28</ele>
        <time>2018-08-02T12:10:13Z</time>
      </trkpt>
      <trkpt lat="48.5244" lon="7.00849">
        <ele>394.76</ele>
        <time>2018-08-02T12:10:23Z</time>
      </trkpt>
      <trkpt lat="48.5243" lon="7.0084">
        <ele>395.72</ele>
        <time>2018-08-02T12:10:33Z</time>
      </trkpt>
      <trkpt lat="48.52419" lon="7.00832">
        <ele>396.2</ele>
        <time>2018-08-02T12:10:43Z</time>
      </trkpt>
      <trkpt lat="48.52409" lon="7.00826">
        <ele>397.16</ele>
        <time>2018-08-02T12:10:54Z</time>
      </trkpt>
      <trkpt lat="48.52399" lon="7.00819">
        <ele>397.64</ele>
        <time>2018-08-02T12:11:05Z</time>
      </trkpt>
      <trkpt lat="48.52384" lon="7.00812">
        <ele>398.12</ele>
        <time>2018-08-02T12:11:16Z</time>
      </trkpt>
      <trkpt lat="48.52371" lon="7.00806">
        <ele>399.08</ele>
        <time>2018-08-02T12:11:27Z</time>
      </trkpt>
      <trkpt lat="48.5236" lon="7.00803">
        <ele>399.57</ele>
        <time>2018-08-02T12:11:37Z</time>
      </trkpt>
      <trkpt lat="48.52345" lon="7.00797">
        <ele>400.05</ele>
        <time>2018-08-02T12:11:46Z</time>
      </trkpt>
      <trkpt lat="48.52335" lon="7.00794">
        <ele>400.53</ele>
        <time>2018-08-02T12:11:55Z</time>
      </trkpt>
      <trkpt lat="48.52325" lon="7.0079">
        <ele>401.01</ele>
        <time>2018-08-02T12:12:04Z</time>
      </trkpt>
      <trkpt lat="48.52315" lon="7.00785">
        <ele>401.49</ele>
        <time>2018-08-02T12:12:14Z</time>
      </trkpt>
      <trkpt lat="48.52304" lon="7.00782">
        <ele>401.49</ele>
        <time>2018-08-02T12:12:24Z</time>
      </trkpt>
      <trkpt lat="48.52293" lon="7.0078">
        <ele>401.97</ele>
        <time>2018-08-02T12:12:33Z</time>
      </trkpt>
      <trkpt lat="48.52282" lon="7.00775">
        <ele>402.45</ele>
        <time>2018-08-02T12:12:41Z</time>
      </trkpt>
      <trkpt lat="48.52274" lon="7.00771">
        <ele>402.45</ele>
        <time>2018-08-02T12:12:50Z</time>
      </trkpt>
      <trkpt lat="48.52264" lon="7.00769">
        <ele>402.93</ele>
        <time>2018-08-02T12:12:59Z</time>
      </trkpt>
      <trkpt lat="48.52252" lon="7.00767">
        <ele>403.41</ele>
        <time>2018-08-02T12:13:08Z</time>
      </trkpt>
      <trkpt lat="48.5224" lon="7.00764">
        <ele>403.89</ele>
        <time>2018-08-02T12:13:18Z</time>
      </trkpt>
      <trkpt lat="48.52228" lon="7.00762">
        <ele>404.37</ele>
        <time>2018-08-02T12:13:28Z</time>
      </trkpt>
      <trkpt lat="48.52216" lon="7.00759">
        <ele>404.37</ele>
        <time>2018-08-02T12:13:39Z</time>
      </trkpt>
      <trkpt lat="48.52204" lon="7.00754">
        <ele>404.85</ele>
        <time>2018-08-02T12:13:49Z</time>
      </trkpt>
      <trkpt lat="48.52196" lon="7.00747">
        <ele>405.33</ele>
        <time>2018-08-02T12:13:58Z</time>
      </trkpt>
      <trkpt lat="48.52186" lon="7.00738">
        <ele>405.33</ele>
        <time>2018-08-02T12:14:08Z</time>
      </trkpt>
      <trkpt lat="48.52175" lon="7.0073">
        <ele>405.81</ele>
        <time>2018-08-02T12:14:17Z</time>
      </trkpt>
      <trkpt lat="48.52167" lon="7.00721">
        <ele>406.29</ele>
        <time>2018-08-02T12:14:26Z</time>
      </trkpt>
      <trkpt lat="48.52157" lon="7.00712">
        <ele>406.77</ele>
        <time>2018-08-02T12:14:36Z</time>
      </trkpt>
      <trkpt lat="48.5215" lon="7.00704">
        <ele>407.26</ele>
        <time>2018-08-02T12:14:46Z</time>
      </trkpt>
      <trkpt lat="48.52139" lon="7.00689">
        <ele>407.74</ele>
        <time>2018-08-02T12:15:00Z</time>
      </trkpt>
      <trkpt lat="48.52128" lon="7.0068">
        <ele>407.74</ele>
        <time>2018-08-02T12:15:12Z</time>
      </trkpt>
      <trkpt lat="48.52113" lon="7.0067">
        <ele>408.22</ele>
        <time>2018-08-02T12:15:24Z</time>
      </trkpt>
      <trkpt lat="48.52098" lon="7.00667">
        <ele>408.22</ele>
        <time>2018-08-02T12:15:34Z</time>
      </trkpt>
      <trkpt lat="48.52087" lon="7.00666">
        <ele>408.22</ele>
        <time>2018-08-02T12:15:43Z</time>
      </trkpt>
      <trkpt lat="48.52075" lon="7.00673">
        <ele>408.22</ele>
        <time>2018-08-02T12:15:52Z</time>
      </trkpt>
      <trkpt lat="48.52065" lon="7.00681">
        <ele>408.22</ele>
        <time>2018-08-02T12:16:01Z</time>
      </trkpt>
      <trkpt lat="48.52056" lon="7.00688">
        <ele>408.22</ele>
        <time>2018-08-02T12:16:10Z</time>
      </trkpt>
      <trkpt lat="48.52048" lon="7.00698">
        <ele>408.7</ele>
        <time>2018-08-02T12:16:19Z</time>
      </trkpt>
      <trkpt lat="48.52041" lon="7.00709">
        <ele>408.7</ele>
        <time>2018-08-02T12:16:28Z</time>
      </trkpt>
      <trkpt lat="48.52036" lon="7.00722">
        <ele>409.18</ele>
        <time>2018-08-02T12:16:37Z</time>
      </trkpt>
      <trkpt lat="48.5203" lon="7.00734">
        <ele>409.18</ele>
        <time>2018-08-02T12:16:46Z</time>
      </trkpt>
      <trkpt lat="48.52024" lon="7.00746">
        <ele>409.18</ele>
        <time>2018-08-02T12:16:55Z</time>
      </trkpt>
      <trkpt lat="48.52018" lon="7.0076">
        <ele>409.66</ele>
        <time>2018-08-02T12:17:04Z</time>
      </trkpt>
      <trkpt lat="48.52013" lon="7.00773">
        <ele>409.66</ele>
        <time>2018-08-02T12:17:12Z</time>
      </trkpt>
      <trkpt lat="48.52007" lon="7.00785">
        <ele>409.66</ele>
        <time>2018-08-02T12:17:21Z</time>
      </trkpt>
      <trkpt lat="48.52002" lon="7.00798">
        <ele>409.66</ele>
        <time>2018-08-02T12:17:30Z</time>
      </trkpt>
      <trkpt lat="48.52003" lon="7.00814">
        <ele>409.66</ele>
        <time>2018-08-02T12:17:39Z</time>
      </trkpt>
      <trkpt lat="48.52005" lon="7.0083">
        <ele>410.14</ele>
        <time>2018-08-02T12:17:48Z</time>
      </trkpt>
      <trkpt lat="48.5201" lon="7.00846">
        <ele>410.62</ele>
        <time>2018-08-02T12:17:57Z</time>
      </trkpt>
      <trkpt lat="48.52014" lon="7.0086">
        <ele>411.1</ele>
        <time>2018-08-02T12:18:06Z</time>
      </trkpt>
      <trkpt lat="48.52015" lon="7.00871">
        <ele>411.1</ele>
        <time>2018-08-02T12:18:31Z</time>
      </trkpt>
      <trkpt lat="48.52012" lon="7.00881">
        <ele>414.47</ele>
        <time>2018-08-02T12:19:26Z</time>
      </trkpt>
      <trkpt lat="48.52009" lon="7.00896">
        <ele>416.87</ele>
        <time>2018-08-02T12:19:43Z</time>
      </trkpt>
      <trkpt lat="48.52005" lon="7.00908">
        <ele>417.83</ele>
        <time>2018-08-02T12:19:54Z</time>
      </trkpt>
      <trkpt lat="48.52002" lon="7.00922">
        <ele>418.31</ele>
        <time>2018-08-02T12:20:06Z</time>
      </trkpt>
      <trkpt lat="48.51998" lon="7.00938">
        <ele>419.75</ele>
        <time>2018-08-02T12:20:20Z</time>
      </trkpt>
      <trkpt lat="48.51991" lon="7.00951">
        <ele>421.19</ele>
        <time>2018-08-02T12:20:35Z</time>
      </trkpt>
      <trkpt lat="48.51983" lon="7.00966">
        <ele>423.6</ele>
        <time>2018-08-02T12:20:53Z</time>
      </trkpt>
      <trkpt lat="48.51977" lon="7.00976">
        <ele>425.04</ele>
        <time>2018-08-02T12:21:07Z</time>
      </trkpt>
      <trkpt lat="48.51973" lon="7.00988">
        <ele>426.48</ele>
        <time>2018-08-02T12:21:21Z</time>
      </trkpt>
      <trkpt lat="48.51966" lon="7.00999">
        <ele>427.92</ele>
        <time>2018-08-02T12:21:36Z</time>
      </trkpt>
      <trkpt lat="48.51957" lon="7.01007">
        <ele>429.85</ele>
        <time>2018-08-02T12:21:53Z</time>
      </trkpt>
      <trkpt lat="48.51949" lon="7.01016">
        <ele>431.77</ele>
        <time>2018-08-02T12:22:11Z</time>
      </trkpt>
      <trkpt lat="48.51942" lon="7.01026">
        <ele>433.69</ele>
        <time>2018-08-02T12:22:28Z</time>
      </trkpt>
      <trkpt lat="48.51936" lon="7.01034">
        <ele>436.1</ele>
        <time>2018-08-02T12:22:46Z</time>
      </trkpt>
      <trkpt lat="48.51929" lon="7.01043">
        <ele>438.02</ele>
        <time>2018-08-02T12:23:01Z</time>
      </trkpt>
      <trkpt lat="48.51921" lon="7.01053">
        <ele>439.46</ele>
        <time>2018-08-02T12:23:16Z</time>
      </trkpt>
      <trkpt lat="48.51914" lon="7.01061">
        <ele>441.38</ele>
        <time>2018-08-02T12:23:32Z</time>
      </trkpt>
      <trkpt lat="48.51906" lon="7.01073">
        <ele>442.82</ele>
        <time>2018-08-02T12:23:50Z</time>
      </trkpt>
      <trkpt lat="48.51902" lon="7.01088">
        <ele>444.75</ele>
        <time>2018-08-02T12:24:05Z</time>
      </trkpt>
      <trkpt lat="48.5189" lon="7.01097">
        <ele>447.63</ele>
        <time>2018-08-02T12:24:24Z</time>
      </trkpt>
      <trkpt lat="48.5188" lon="7.01103">
        <ele>450.03</ele>
        <time>2018-08-02T12:24:42Z</time>
      </trkpt>
      <trkpt lat="48.5187" lon="7.01106">
        <ele>451.96</ele>
        <time>2018-08-02T12:24:57Z</time>
      </trkpt>
      <trkpt lat="48.5186" lon="7.011">
        <ele>453.88</ele>
        <time>2018-08-02T12:25:12Z</time>
      </trkpt>
      <trkpt lat="48.51852" lon="7.01096">
        <ele>455.32</ele>
        <time>2018-08-02T12:25:25Z</time>
      </trkpt>
      <trkpt lat="48.51842" lon="7.01093">
        <ele>456.76</ele>
        <time>2018-08-02T12:25:39Z</time>
      </trkpt>
      <trkpt lat="48.51831" lon="7.01086">
        <ele>458.21</ele>
        <time>2018-08-02T12:25:54Z</time>
      </trkpt>
      <trkpt lat="48.51818" lon="7.01086">
        <ele>459.65</ele>
        <time>2018-08-02T12:26:10Z</time>
      </trkpt>
      <trkpt lat="48.51808" lon="7.01088">
        <ele>461.57</ele>
        <time>2018-08-02T12:26:26Z</time>
      </trkpt>
      <trkpt lat="48.518" lon="7.01097">
        <ele>463.01</ele>
        <time>2018-08-02T12:26:40Z</time>
      </trkpt>
      <trkpt lat="48.51789" lon="7.01104">
        <ele>464.45</ele>
        <time>2018-08-02T12:26:55Z</time>
      </trkpt>
      <trkpt lat="48.51777" lon="7.01106">
        <ele>465.42</ele>
        <time>2018-08-02T12:27:08Z</time>
      </trkpt>
      <trkpt lat="48.51769" lon="7.01102">
        <ele>467.82</ele>
        <time>2018-08-02T12:27:24Z</time>
      </trkpt>
      <trkpt lat="48.51762" lon="7.01089">
        <ele>470.22</ele>
        <time>2018-08-02T12:27:41Z</time>
      </trkpt>
      <trkpt lat="48.51753" lon="7.01077">
        <ele>472.63</ele>
        <time>2018-08-02T12:28:00Z</time>
      </trkpt>
      <trkpt lat="48.51747" lon="7.01062">
        <ele>475.03</ele>
        <time>2018-08-02T12:28:16Z</time>
      </trkpt>
      <trkpt lat="48.51746" lon="7.01048">
        <ele>475.99</ele>
        <time>2018-08-02T12:28:29Z</time>
      </trkpt>
      <trkpt lat="48.51741" lon="7.01033">
        <ele>477.91</ele>
        <time>2018-08-02T12:28:45Z</time>
      </trkpt>
      <trkpt lat="48.51734" lon="7.01015">
        <ele>479.35</ele>
        <time>2018-08-02T12:29:01Z</time>
      </trkpt>
      <trkpt lat="48.51713" lon="7.00999">
        <ele>483.2</ele>
        <time>2018-08-02T12:29:29Z</time>
      </trkpt>
      <trkpt lat="48.51695" lon="7.00989">
        <ele>486.08</ele>
        <time>2018-08-02T12:29:49Z</time>
      </trkpt>
      <trkpt lat="48.51684" lon="7.00985">
        <ele>488.01</ele>
        <time>2018-08-02T12:30:03Z</time>
      </trkpt>
      <trkpt lat="48.51675" lon="7.0099">
        <ele>489.45</ele>
        <time>2018-08-02T12:30:16Z</time>
      </trkpt>
      <trkpt lat="48.51679" lon="7.00992">
        <ele>488.01</ele>
        <time>2018-08-02T12:32:35Z</time>
      </trkpt>
      <trkpt lat="48.51676" lon="7.00996">
        <ele>488.01</ele>
        <time>2018-08-02T12:36:37Z</time>
      </trkpt>
      <trkpt lat="48.51677" lon="7.0101">
        <ele>488.01</ele>
        <time>2018-08-02T12:36:47Z</time>
      </trkpt>
      <trkpt lat="48.51676" lon="7.01025">
        <ele>488.49</ele>
        <time>2018-08-02T12:36:58Z</time>
      </trkpt>
      <trkpt lat="48.51675" lon="7.0104">
        <ele>488.97</ele>
        <time>2018-08-02T12:37:10Z</time>
      </trkpt>
      <trkpt lat="48.51673" lon="7.01054">
        <ele>489.45</ele>
        <time>2018-08-02T12:37:21Z</time>
      </trkpt>
      <trkpt lat="48.51671" lon="7.01069">
        <ele>489.93</ele>
        <time>2018-08-02T12:37:32Z</time>
      </trkpt>
      <trkpt lat="48.51668" lon="7.01083">
        <ele>490.41</ele>
        <time>2018-08-02T12:37:43Z</time>
      </trkpt>
      <trkpt lat="48.51665" lon="7.01099">
        <ele>490.41</ele>
        <time>2018-08-02T12:37:53Z</time>
      </trkpt>
      <trkpt lat="48.51662" lon="7.01117">
        <ele>490.89</ele>
        <time>2018-08-02T12:38:03Z</time>
      </trkpt>
      <trkpt lat="48.51659" lon="7.01133">
        <ele>490.89</ele>
        <time>2018-08-02T12:38:13Z</time>
      </trkpt>
      <trkpt lat="48.51654" lon="7.01147">
        <ele>491.37</ele>
        <time>2018-08-02T12:38:22Z</time>
      </trkpt>
      <trkpt lat="48.5165" lon="7.0116">
        <ele>491.85</ele>
        <time>2018-08-02T12:38:31Z</time>
      </trkpt>
      <trkpt lat="48.51644" lon="7.01172">
        <ele>492.33</ele>
        <time>2018-08-02T12:38:41Z</time>
      </trkpt>
      <trkpt lat="48.51641" lon="7.01188">
        <ele>492.81</ele>
        <time>2018-08-02T12:38:51Z</time>
      </trkpt>
      <trkpt lat="48.51635" lon="7.01202">
        <ele>493.29</ele>
        <time>2018-08-02T12:39:01Z</time>
      </trkpt>
      <trkpt lat="48.51633" lon="7.01218">
        <ele>493.77</ele>
        <time>2018-08-02T12:39:11Z</time>
      </trkpt>
      <trkpt lat="48.51628" lon="7.01232">
        <ele>494.26</ele>
        <time>2018-08-02T12:39:21Z</time>
      </trkpt>
      <trkpt lat="48.51624" lon="7.01247">
        <ele>494.74</ele>
        <time>2018-08-02T12:39:31Z</time>
      </trkpt>
      <trkpt lat="48.51619" lon="7.01262">
        <ele>495.7</ele>
        <time>2018-08-02T12:39:41Z</time>
      </trkpt>
      <trkpt lat="48.51617" lon="7.01279">
        <ele>495.7</ele>
        <time>2018-08-02T12:39:50Z</time>
      </trkpt>
      <trkpt lat="48.51614" lon="7.01295">
        <ele>496.18</ele>
        <time>2018-08-02T12:39:59Z</time>
      </trkpt>
      <trkpt lat="48.5161" lon="7.0131">
        <ele>496.66</ele>
        <time>2018-08-02T12:40:08Z</time>
      </trkpt>
      <trkpt lat="48.51606" lon="7.01322">
        <ele>496.66</ele>
        <time>2018-08-02T12:40:17Z</time>
      </trkpt>
      <trkpt lat="48.51601" lon="7.01337">
        <ele>497.62</ele>
        <time>2018-08-02T12:40:26Z</time>
      </trkpt>
      <trkpt lat="48.51598" lon="7.0135">
        <ele>498.1</ele>
        <time>2018-08-02T12:40:35Z</time>
      </trkpt>
      <trkpt lat="48.51595" lon="7.01363">
        <ele>499.06</ele>
        <time>2018-08-02T12:40:44Z</time>
      </trkpt>
      <trkpt lat="48.51587" lon="7.01374">
        <ele>500.02</ele>
        <time>2018-08-02T12:40:54Z</time>
      </trkpt>
      <trkpt lat="48.51582" lon="7.01386">
        <ele>500.5</ele>
        <time>2018-08-02T12:41:03Z</time>
      </trkpt>
      <trkpt lat="48.51573" lon="7.01396">
        <ele>500.98</ele>
        <time>2018-08-02T12:41:13Z</time>
      </trkpt>
      <trkpt lat="48.51564" lon="7.01403">
        <ele>501.46</ele>
        <time>2018-08-02T12:41:22Z</time>
      </trkpt>
      <trkpt lat="48.51553" lon="7.01408">
        <ele>501.95</ele>
        <time>2018-08-02T12:41:31Z</time>
      </trkpt>
      <trkpt lat="48.51544" lon="7.0141">
        <ele>502.43</ele>
        <time>2018-08-02T12:41:40Z</time>
      </trkpt>
      <trkpt lat="48.51534" lon="7.01412">
        <ele>503.39</ele>
        <time>2018-08-02T12:41:49Z</time>
      </trkpt>
      <trkpt lat="48.51523" lon="7.01413">
        <ele>503.87</ele>
        <time>2018-08-02T12:41:58Z</time>
      </trkpt>
      <trkpt lat="48.51513" lon="7.01415">
        <ele>504.35</ele>
        <time>2018-08-02T12:42:07Z</time>
      </trkpt>
      <trkpt lat="48.51503" lon="7.01418">
        <ele>505.31</ele>
        <time>2018-08-02T12:42:17Z</time>
      </trkpt>
      <trkpt lat="48.51493" lon="7.01421">
        <ele>505.79</ele>
        <time>2018-08-02T12:42:26Z</time>
      </trkpt>
      <trkpt lat="48.51481" lon="7.01424">
        <ele>506.27</ele>
        <time>2018-08-02T12:42:37Z</time>
      </trkpt>
      <trkpt lat="48.51472" lon="7.01427">
        <ele>507.23</ele>
        <time>2018-08-02T12:42:49Z</time>
      </trkpt>
      <trkpt lat="48.51463" lon="7.01437">
        <ele>507.71</ele>
        <time>2018-08-02T12:42:59Z</time>
      </trkpt>
      <trkpt lat="48.51455" lon="7.01446">
        <ele>508.19</ele>
        <time>2018-08-02T12:43:09Z</time>
      </trkpt>
      <trkpt lat="48.51446" lon="7.01456">
        <ele>508.67</ele>
        <time>2018-08-02T12:43:19Z</time>
      </trkpt>
      <trkpt lat="48.51435" lon="7.01462">
        <ele>509.64</ele>
        <time>2018-08-02T12:43:29Z</time>
      </trkpt>
      <trkpt lat="48.51428" lon="7.01473">
        <ele>509.64</ele>
        <time>2018-08-02T12:43:39Z</time>
      </trkpt>
      <trkpt lat="48.5142" lon="7.01481">
        <ele>510.12</ele>
        <time>2018-08-02T12:43:49Z</time>
      </trkpt>
      <trkpt lat="48.51408" lon="7.01489">
        <ele>511.08</ele>
        <time>2018-08-02T12:44:00Z</time>
      </trkpt>
      <trkpt lat="48.51406" lon="7.01502">
        <ele>512.04</ele>
        <time>2018-08-02T12:44:45Z</time>
      </trkpt>
      <trkpt lat="48.51398" lon="7.01502">
        <ele>515.88</ele>
        <time>2018-08-02T12:45:13Z</time>
      </trkpt>
      <trkpt lat="48.51385" lon="7.01502">
        <ele>518.77</ele>
        <time>2018-08-02T12:45:38Z</time>
      </trkpt>
      <trkpt lat="48.51362" lon="7.01502">
        <ele>522.13</ele>
        <time>2018-08-02T12:46:23Z</time>
      </trkpt>
      <trkpt lat="48.51351" lon="7.0151">
        <ele>526.46</ele>
        <time>2018-08-02T12:46:51Z</time>
      </trkpt>
      <trkpt lat="48.51337" lon="7.01521">
        <ele>530.79</ele>
        <time>2018-08-02T12:47:20Z</time>
      </trkpt>
      <trkpt lat="48.51337" lon="7.01543">
        <ele>534.63</ele>
        <time>2018-08-02T12:47:43Z</time>
      </trkpt>
      <trkpt lat="48.51333" lon="7.01559">
        <ele>537.51</ele>
        <time>2018-08-02T12:48:06Z</time>
      </trkpt>
      <trkpt lat="48.51326" lon="7.01572">
        <ele>538.96</ele>
        <time>2018-08-02T12:48:23Z</time>
      </trkpt>
      <trkpt lat="48.51321" lon="7.01586">
        <ele>541.36</ele>
        <time>2018-08-02T12:48:40Z</time>
      </trkpt>
      <trkpt lat="48.5132" lon="7.01603">
        <ele>543.76</ele>
        <time>2018-08-02T12:48:57Z</time>
      </trkpt>
      <trkpt lat="48.51315" lon="7.01614">
        <ele>545.2</ele>
        <time>2018-08-02T12:49:13Z</time>
      </trkpt>
      <trkpt lat="48.51311" lon="7.01629">
        <ele>546.65</ele>
        <time>2018-08-02T12:49:28Z</time>
      </trkpt>
      <trkpt lat="48.51306" lon="7.01645">
        <ele>548.09</ele>
        <time>2018-08-02T12:49:48Z</time>
      </trkpt>
      <trkpt lat="48.513" lon="7.01658">
        <ele>549.05</ele>
        <time>2018-08-02T12:50:02Z</time>
      </trkpt>
      <trkpt lat="48.51296" lon="7.01678">
        <ele>550.01</ele>
        <time>2018-08-02T12:50:15Z</time>
      </trkpt>
      <trkpt lat="48.51289" lon="7.01691">
        <ele>551.45</ele>
        <time>2018-08-02T12:50:29Z</time>
      </trkpt>
      <trkpt lat="48.5128" lon="7.01698">
        <ele>551.93</ele>
        <time>2018-08-02T12:50:42Z</time>
      </trkpt>
      <trkpt lat="48.51272" lon="7.01713">
        <ele>552.9</ele>
        <time>2018-08-02T12:50:58Z</time>
      </trkpt>
      <trkpt lat="48.5126" lon="7.01724">
        <ele>553.86</ele>
        <time>2018-08-02T12:51:13Z</time>
      </trkpt>
      <trkpt lat="48.51247" lon="7.01724">
        <ele>554.82</ele>
        <time>2018-08-02T12:51:26Z</time>
      </trkpt>
      <trkpt lat="48.5124" lon="7.01725">
        <ele>556.74</ele>
        <time>2018-08-02T12:51:44Z</time>
      </trkpt>
      <trkpt lat="48.51227" lon="7.01726">
        <ele>558.18</ele>
        <time>2018-08-02T12:52:02Z</time>
      </trkpt>
      <trkpt lat="48.51215" lon="7.01722">
        <ele>559.14</ele>
        <time>2018-08-02T12:52:17Z</time>
      </trkpt>
      <trkpt lat="48.51206" lon="7.01715">
        <ele>561.07</ele>
        <time>2018-08-02T12:52:43Z</time>
      </trkpt>
      <trkpt lat="48.51178" lon="7.01703">
        <ele>561.55</ele>
        <time>2018-08-02T12:55:57Z</time>
      </trkpt>
      <trkpt lat="48.51179" lon="7.01712">
        <ele>562.51</ele>
        <time>2018-08-02T12:56:31Z</time>
      </trkpt>
      <trkpt lat="48.5117" lon="7.01717">
        <ele>562.51</ele>
        <time>2018-08-02T12:56:42Z</time>
      </trkpt>
      <trkpt lat="48.51161" lon="7.01719">
        <ele>562.99</ele>
        <time>2018-08-02T12:56:52Z</time>
      </trkpt>
      <trkpt lat="48.51151" lon="7.01721">
        <ele>563.47</ele>
        <time>2018-08-02T12:57:01Z</time>
      </trkpt>
      <trkpt lat="48.5114" lon="7.01723">
        <ele>563.95</ele>
        <time>2018-08-02T12:57:11Z</time>
      </trkpt>
      <trkpt lat="48.51131" lon="7.01724">
        <ele>564.43</ele>
        <time>2018-08-02T12:57:21Z</time>
      </trkpt>
      <trkpt lat="48.51123" lon="7.01727">
        <ele>564.91</ele>
        <time>2018-08-02T12:57:30Z</time>
      </trkpt>
      <trkpt lat="48.51113" lon="7.01727">
        <ele>565.39</ele>
        <time>2018-08-02T12:57:39Z</time>
      </trkpt>
      <trkpt lat="48.51102" lon="7.01728">
        <ele>565.87</ele>
        <time>2018-08-02T12:57:48Z</time>
      </trkpt>
      <trkpt lat="48.51091" lon="7.01728">
        <ele>566.83</ele>
        <time>2018-08-02T12:57:59Z</time>
      </trkpt>
      <trkpt lat="48.51081" lon="7.0173">
        <ele>567.32</ele>
        <time>2018-08-02T12:58:10Z</time>
      </trkpt>
      <trkpt lat="48.51071" lon="7.01731">
        <ele>567.8</ele>
        <time>2018-08-02T12:58:20Z</time>
      </trkpt>
      <trkpt lat="48.51062" lon="7.01732">
        <ele>568.28</ele>
        <time>2018-08-02T12:58:32Z</time>
      </trkpt>
      <trkpt lat="48.51052" lon="7.01734">
        <ele>569.72</ele>
        <time>2018-08-02T12:58:46Z</time>
      </trkpt>
      <trkpt lat="48.51043" lon="7.01737">
        <ele>572.12</ele>
        <time>2018-08-02T12:59:02Z</time>
      </trkpt>
      <trkpt lat="48.51026" lon="7.01735">
        <ele>573.08</ele>
        <time>2018-08-02T12:59:16Z</time>
      </trkpt>
      <trkpt lat="48.51017" lon="7.01733">
        <ele>574.53</ele>
        <time>2018-08-02T12:59:29Z</time>
      </trkpt>
      <trkpt lat="48.51008" lon="7.01738">
        <ele>575.97</ele>
        <time>2018-08-02T12:59:39Z</time>
      </trkpt>
      <trkpt lat="48.50998" lon="7.01741">
        <ele>576.93</ele>
        <time>2018-08-02T12:59:49Z</time>
      </trkpt>
      <trkpt lat="48.50989" lon="7.01747">
        <ele>577.89</ele>
        <time>2018-08-02T12:59:59Z</time>
      </trkpt>
      <trkpt lat="48.5098" lon="7.01755">
        <ele>578.85</ele>
        <time>2018-08-02T13:00:10Z</time>
      </trkpt>
      <trkpt lat="48.50973" lon="7.01767">
        <ele>579.81</ele>
        <time>2018-08-02T13:00:22Z</time>
      </trkpt>
      <trkpt lat="48.50965" lon="7.01775">
        <ele>580.77</ele>
        <time>2018-08-02T13:00:32Z</time>
      </trkpt>
      <trkpt lat="48.50956" lon="7.01782">
        <ele>581.73</ele>
        <time>2018-08-02T13:00:41Z</time>
      </trkpt>
      <trkpt lat="48.50946" lon="7.01788">
        <ele>583.18</ele>
        <time>2018-08-02T13:00:50Z</time>
      </trkpt>
      <trkpt lat="48.50927" lon="7.0179">
        <ele>584.14</ele>
        <time>2018-08-02T13:01:07Z</time>
      </trkpt>
      <trkpt lat="48.50922" lon="7.01802">
        <ele>584.14</ele>
        <time>2018-08-02T13:01:16Z</time>
      </trkpt>
      <trkpt lat="48.50919" lon="7.01816">
        <ele>583.66</ele>
        <time>2018-08-02T13:01:30Z</time>
      </trkpt>
      <trkpt lat="48.50914" lon="7.01827">
        <ele>583.18</ele>
        <time>2018-08-02T13:02:05Z</time>
      </trkpt>
      <trkpt lat="48.50912" lon="7.01843">
        <ele>583.18</ele>
        <time>2018-08-02T13:02:16Z</time>
      </trkpt>
      <trkpt lat="48.50916" lon="7.01861">
        <ele>583.18</ele>
        <time>2018-08-02T13:02:27Z</time>
      </trkpt>
      <trkpt lat="48.50917" lon="7.01877">
        <ele>584.14</ele>
        <time>2018-08-02T13:02:38Z</time>
      </trkpt>
      <trkpt lat="48.50918" lon="7.01892">
        <ele>584.62</ele>
        <time>2018-08-02T13:02:47Z</time>
      </trkpt>
      <trkpt lat="48.50921" lon="7.01904">
        <ele>584.62</ele>
        <time>2018-08-02T13:03:02Z</time>
      </trkpt>
      <trkpt lat="48.50924" lon="7.01921">
        <ele>585.58</ele>
        <time>2018-08-02T13:03:13Z</time>
      </trkpt>
      <trkpt lat="48.50928" lon="7.01939">
        <ele>585.58</ele>
        <time>2018-08-02T13:03:23Z</time>
      </trkpt>
      <trkpt lat="48.50931" lon="7.01954">
        <ele>585.58</ele>
        <time>2018-08-02T13:03:36Z</time>
      </trkpt>
      <trkpt lat="48.50938" lon="7.01971">
        <ele>586.06</ele>
        <time>2018-08-02T13:03:49Z</time>
      </trkpt>
      <trkpt lat="48.50947" lon="7.01986">
        <ele>585.58</ele>
        <time>2018-08-02T13:04:02Z</time>
      </trkpt>
      <trkpt lat="48.50954" lon="7.02002">
        <ele>584.62</ele>
        <time>2018-08-02T13:04:18Z</time>
      </trkpt>
      <trkpt lat="48.5096" lon="7.02021">
        <ele>584.14</ele>
        <time>2018-08-02T13:04:31Z</time>
      </trkpt>
      <trkpt lat="48.50964" lon="7.02039">
        <ele>584.62</ele>
        <time>2018-08-02T13:04:41Z</time>
      </trkpt>
      <trkpt lat="48.50966" lon="7.02055">
        <ele>585.58</ele>
        <time>2018-08-02T13:04:51Z</time>
      </trkpt>
      <trkpt lat="48.50966" lon="7.02068">
        <ele>586.06</ele>
        <time>2018-08-02T13:05:01Z</time>
      </trkpt>
      <trkpt lat="48.50962" lon="7.02079">
        <ele>586.54</ele>
        <time>2018-08-02T13:05:11Z</time>
      </trkpt>
      <trkpt lat="48.50959" lon="7.02091">
        <ele>587.5</ele>
        <time>2018-08-02T13:05:22Z</time>
      </trkpt>
      <trkpt lat="48.50955" lon="7.021">
        <ele>588.46</ele>
        <time>2018-08-02T13:05:32Z</time>
      </trkpt>
      <trkpt lat="48.50952" lon="7.02114">
        <ele>589.91</ele>
        <time>2018-08-02T13:05:44Z</time>
      </trkpt>
      <trkpt lat="48.50946" lon="7.02124">
        <ele>591.35</ele>
        <time>2018-08-02T13:05:56Z</time>
      </trkpt>
      <trkpt lat="48.50945" lon="7.02142">
        <ele>591.83</ele>
        <time>2018-08-02T13:06:06Z</time>
      </trkpt>
      <trkpt lat="48.50944" lon="7.02159">
        <ele>592.31</ele>
        <time>2018-08-02T13:06:15Z</time>
      </trkpt>
      <trkpt lat="48.50938" lon="7.0217">
        <ele>592.79</ele>
        <time>2018-08-02T13:06:25Z</time>
      </trkpt>
      <trkpt lat="48.50932" lon="7.02179">
        <ele>593.27</ele>
        <time>2018-08-02T13:06:34Z</time>
      </trkpt>
      <trkpt lat="48.50926" lon="7.02188">
        <ele>593.75</ele>
        <time>2018-08-02T13:06:43Z</time>
      </trkpt>
      <trkpt lat="48.50921" lon="7.02197">
        <ele>594.71</ele>
        <time>2018-08-02T13:06:53Z</time>
      </trkpt>
      <trkpt lat="48.50912" lon="7.02204">
        <ele>596.15</ele>
        <time>2018-08-02T13:07:03Z</time>
      </trkpt>
      <trkpt lat="48.50907" lon="7.02215">
        <ele>597.12</ele>
        <time>2018-08-02T13:07:14Z</time>
      </trkpt>
      <trkpt lat="48.50901" lon="7.02224">
        <ele>598.08</ele>
        <time>2018-08-02T13:07:24Z</time>
      </trkpt>
      <trkpt lat="48.50894" lon="7.02232">
        <ele>598.56</ele>
        <time>2018-08-02T13:07:35Z</time>
      </trkpt>
      <trkpt lat="48.50887" lon="7.02243">
        <ele>599.04</ele>
        <time>2018-08-02T13:07:44Z</time>
      </trkpt>
      <trkpt lat="48.5088" lon="7.0225">
        <ele>599.52</ele>
        <time>2018-08-02T13:07:52Z</time>
      </trkpt>
      <trkpt lat="48.50872" lon="7.02256">
        <ele>599.52</ele>
        <time>2018-08-02T13:08:00Z</time>
      </trkpt>
      <trkpt lat="48.50863" lon="7.02263">
        <ele>599.52</ele>
        <time>2018-08-02T13:08:09Z</time>
      </trkpt>
      <trkpt lat="48.50857" lon="7.02272">
        <ele>599.04</ele>
        <time>2018-08-02T13:08:21Z</time>
      </trkpt>
      <trkpt lat="48.50849" lon="7.02282">
        <ele>599.52</ele>
        <time>2018-08-02T13:08:31Z</time>
      </trkpt>
      <trkpt lat="48.50842" lon="7.02291">
        <ele>600</ele>
        <time>2018-08-02T13:08:40Z</time>
      </trkpt>
      <trkpt lat="48.50835" lon="7.02301">
        <ele>600.48</ele>
        <time>2018-08-02T13:08:50Z</time>
      </trkpt>
      <trkpt lat="48.50824" lon="7.02309">
        <ele>602.4</ele>
        <time>2018-08-02T13:09:02Z</time>
      </trkpt>
      <trkpt lat="48.50814" lon="7.02318">
        <ele>602.4</ele>
        <time>2018-08-02T13:09:11Z</time>
      </trkpt>
      <trkpt lat="48.50807" lon="7.02328">
        <ele>601.92</ele>
        <time>2018-08-02T13:09:20Z</time>
      </trkpt>
      <trkpt lat="48.50799" lon="7.02339">
        <ele>602.4</ele>
        <time>2018-08-02T13:09:29Z</time>
      </trkpt>
      <trkpt lat="48.50794" lon="7.02352">
        <ele>602.4</ele>
        <time>2018-08-02T13:09:41Z</time>
      </trkpt>
      <trkpt lat="48.50786" lon="7.02365">
        <ele>602.4</ele>
        <time>2018-08-02T13:09:51Z</time>
      </trkpt>
      <trkpt lat="48.50778" lon="7.02376">
        <ele>602.88</ele>
        <time>2018-08-02T13:10:01Z</time>
      </trkpt>
      <trkpt lat="48.50771" lon="7.02386">
        <ele>603.36</ele>
        <time>2018-08-02T13:10:12Z</time>
      </trkpt>
      <trkpt lat="48.50764" lon="7.02398">
        <ele>603.36</ele>
        <time>2018-08-02T13:10:22Z</time>
      </trkpt>
      <trkpt lat="48.50757" lon="7.02409">
        <ele>604.33</ele>
        <time>2018-08-02T13:10:31Z</time>
      </trkpt>
      <trkpt lat="48.5075" lon="7.02418">
        <ele>604.81</ele>
        <time>2018-08-02T13:10:40Z</time>
      </trkpt>
      <trkpt lat="48.50744" lon="7.02428">
        <ele>605.29</ele>
        <time>2018-08-02T13:10:49Z</time>
      </trkpt>
      <trkpt lat="48.50739" lon="7.02438">
        <ele>605.77</ele>
        <time>2018-08-02T13:11:00Z</time>
      </trkpt>
      <trkpt lat="48.50731" lon="7.02448">
        <ele>606.25</ele>
        <time>2018-08-02T13:11:09Z</time>
      </trkpt>
      <trkpt lat="48.50724" lon="7.02458">
        <ele>606.25</ele>
        <time>2018-08-02T13:11:19Z</time>
      </trkpt>
      <trkpt lat="48.50715" lon="7.02463">
        <ele>606.73</ele>
        <time>2018-08-02T13:11:28Z</time>
      </trkpt>
      <trkpt lat="48.50714" lon="7.0248">
        <ele>607.21</ele>
        <time>2018-08-02T13:11:38Z</time>
      </trkpt>
      <trkpt lat="48.5071" lon="7.02496">
        <ele>607.69</ele>
        <time>2018-08-02T13:11:52Z</time>
      </trkpt>
      <trkpt lat="48.50702" lon="7.02499">
        <ele>608.17</ele>
        <time>2018-08-02T13:12:04Z</time>
      </trkpt>
      <trkpt lat="48.50688" lon="7.02498">
        <ele>608.17</ele>
        <time>2018-08-02T13:12:16Z</time>
      </trkpt>
      <trkpt lat="48.50678" lon="7.02501">
        <ele>608.17</ele>
        <time>2018-08-02T13:12:26Z</time>
      </trkpt>
      <trkpt lat="48.50669" lon="7.02502">
        <ele>608.17</ele>
        <time>2018-08-02T13:12:35Z</time>
      </trkpt>
      <trkpt lat="48.50658" lon="7.02505">
        <ele>607.21</ele>
        <time>2018-08-02T13:12:45Z</time>
      </trkpt>
      <trkpt lat="48.50648" lon="7.02509">
        <ele>607.21</ele>
        <time>2018-08-02T13:12:54Z</time>
      </trkpt>
      <trkpt lat="48.50639" lon="7.02513">
        <ele>608.17</ele>
        <time>2018-08-02T13:13:04Z</time>
      </trkpt>
      <trkpt lat="48.50629" lon="7.02517">
        <ele>608.17</ele>
        <time>2018-08-02T13:13:13Z</time>
      </trkpt>
      <trkpt lat="48.50617" lon="7.02521">
        <ele>608.17</ele>
        <time>2018-08-02T13:13:23Z</time>
      </trkpt>
      <trkpt lat="48.5061" lon="7.02527">
        <ele>608.17</ele>
        <time>2018-08-02T13:13:35Z</time>
      </trkpt>
      <trkpt lat="48.506" lon="7.02532">
        <ele>607.69</ele>
        <time>2018-08-02T13:13:45Z</time>
      </trkpt>
      <trkpt lat="48.50594" lon="7.02539">
        <ele>607.21</ele>
        <time>2018-08-02T13:13:55Z</time>
      </trkpt>
      <trkpt lat="48.50584" lon="7.02544">
        <ele>607.21</ele>
        <time>2018-08-02T13:14:05Z</time>
      </trkpt>
      <trkpt lat="48.50575" lon="7.02553">
        <ele>607.21</ele>
        <time>2018-08-02T13:14:14Z</time>
      </trkpt>
      <trkpt lat="48.50567" lon="7.02561">
        <ele>607.69</ele>
        <time>2018-08-02T13:14:23Z</time>
      </trkpt>
      <trkpt lat="48.50554" lon="7.02565">
        <ele>609.61</ele>
        <time>2018-08-02T13:14:33Z</time>
      </trkpt>
      <trkpt lat="48.50545" lon="7.02574">
        <ele>609.61</ele>
        <time>2018-08-02T13:14:43Z</time>
      </trkpt>
      <trkpt lat="48.50538" lon="7.02586">
        <ele>610.57</ele>
        <time>2018-08-02T13:14:52Z</time>
      </trkpt>
      <trkpt lat="48.5053" lon="7.02593">
        <ele>611.06</ele>
        <time>2018-08-02T13:15:01Z</time>
      </trkpt>
      <trkpt lat="48.50525" lon="7.02605">
        <ele>611.54</ele>
        <time>2018-08-02T13:15:11Z</time>
      </trkpt>
      <trkpt lat="48.50517" lon="7.02617">
        <ele>611.54</ele>
        <time>2018-08-02T13:15:23Z</time>
      </trkpt>
      <trkpt lat="48.5051" lon="7.02628">
        <ele>611.54</ele>
        <time>2018-08-02T13:15:33Z</time>
      </trkpt>
      <trkpt lat="48.50504" lon="7.0264">
        <ele>611.06</ele>
        <time>2018-08-02T13:15:42Z</time>
      </trkpt>
      <trkpt lat="48.50498" lon="7.02652">
        <ele>611.06</ele>
        <time>2018-08-02T13:15:51Z</time>
      </trkpt>
      <trkpt lat="48.50491" lon="7.02661">
        <ele>611.54</ele>
        <time>2018-08-02T13:16:01Z</time>
      </trkpt>
      <trkpt lat="48.50483" lon="7.02669">
        <ele>612.5</ele>
        <time>2018-08-02T13:16:12Z</time>
      </trkpt>
      <trkpt lat="48.50475" lon="7.02678">
        <ele>613.46</ele>
        <time>2018-08-02T13:16:23Z</time>
      </trkpt>
      <trkpt lat="48.50468" lon="7.02687">
        <ele>614.42</ele>
        <time>2018-08-02T13:16:34Z</time>
      </trkpt>
      <trkpt lat="48.5046" lon="7.02697">
        <ele>614.9</ele>
        <time>2018-08-02T13:16:44Z</time>
      </trkpt>
      <trkpt lat="48.50454" lon="7.02705">
        <ele>614.9</ele>
        <time>2018-08-02T13:16:54Z</time>
      </trkpt>
      <trkpt lat="48.50445" lon="7.02713">
        <ele>615.86</ele>
        <time>2018-08-02T13:17:03Z</time>
      </trkpt>
      <trkpt lat="48.50437" lon="7.02721">
        <ele>615.38</ele>
        <time>2018-08-02T13:17:12Z</time>
      </trkpt>
      <trkpt lat="48.50433" lon="7.02738">
        <ele>615.86</ele>
        <time>2018-08-02T13:17:23Z</time>
      </trkpt>
      <trkpt lat="48.5045" lon="7.02789">
        <ele>618.26</ele>
        <time>2018-08-02T13:20:53Z</time>
      </trkpt>
      <trkpt lat="48.50458" lon="7.02803">
        <ele>619.71</ele>
        <time>2018-08-02T13:22:54Z</time>
      </trkpt>
      <trkpt lat="48.5046" lon="7.02821">
        <ele>622.59</ele>
        <time>2018-08-02T13:23:24Z</time>
      </trkpt>
      <trkpt lat="48.50473" lon="7.02844">
        <ele>624.03</ele>
        <time>2018-08-02T13:23:44Z</time>
      </trkpt>
      <trkpt lat="48.50478" lon="7.02862">
        <ele>625.47</ele>
        <time>2018-08-02T13:24:02Z</time>
      </trkpt>
      <trkpt lat="48.50481" lon="7.02878">
        <ele>626.44</ele>
        <time>2018-08-02T13:24:15Z</time>
      </trkpt>
      <trkpt lat="48.50486" lon="7.02892">
        <ele>627.4</ele>
        <time>2018-08-02T13:24:26Z</time>
      </trkpt>
      <trkpt lat="48.5049" lon="7.02904">
        <ele>627.4</ele>
        <time>2018-08-02T13:24:38Z</time>
      </trkpt>
      <trkpt lat="48.50495" lon="7.02921">
        <ele>627.88</ele>
        <time>2018-08-02T13:24:50Z</time>
      </trkpt>
      <trkpt lat="48.50499" lon="7.02939">
        <ele>628.36</ele>
        <time>2018-08-02T13:25:03Z</time>
      </trkpt>
      <trkpt lat="48.50499" lon="7.02954">
        <ele>628.84</ele>
        <time>2018-08-02T13:25:14Z</time>
      </trkpt>
      <trkpt lat="48.50499" lon="7.02968">
        <ele>629.32</ele>
        <time>2018-08-02T13:25:25Z</time>
      </trkpt>
      <trkpt lat="48.50496" lon="7.02979">
        <ele>630.28</ele>
        <time>2018-08-02T13:25:36Z</time>
      </trkpt>
      <trkpt lat="48.50491" lon="7.02992">
        <ele>630.28</ele>
        <time>2018-08-02T13:25:47Z</time>
      </trkpt>
      <trkpt lat="48.50488" lon="7.03007">
        <ele>630.76</ele>
        <time>2018-08-02T13:25:58Z</time>
      </trkpt>
      <trkpt lat="48.50486" lon="7.03024">
        <ele>631.24</ele>
        <time>2018-08-02T13:26:09Z</time>
      </trkpt>
      <trkpt lat="48.50483" lon="7.03037">
        <ele>631.24</ele>
        <time>2018-08-02T13:26:19Z</time>
      </trkpt>
      <trkpt lat="48.50478" lon="7.03049">
        <ele>631.24</ele>
        <time>2018-08-02T13:26:29Z</time>
      </trkpt>
      <trkpt lat="48.50474" lon="7.03062">
        <ele>632.2</ele>
        <time>2018-08-02T13:26:39Z</time>
      </trkpt>
      <trkpt lat="48.50469" lon="7.03075">
        <ele>632.68</ele>
        <time>2018-08-02T13:26:50Z</time>
      </trkpt>
      <trkpt lat="48.50464" lon="7.03086">
        <ele>632.68</ele>
        <time>2018-08-02T13:27:00Z</time>
      </trkpt>
      <trkpt lat="48.50458" lon="7.03097">
        <ele>633.17</ele>
        <time>2018-08-02T13:27:10Z</time>
      </trkpt>
      <trkpt lat="48.50453" lon="7.03108">
        <ele>634.13</ele>
        <time>2018-08-02T13:27:20Z</time>
      </trkpt>
      <trkpt lat="48.5045" lon="7.03124">
        <ele>635.57</ele>
        <time>2018-08-02T13:27:32Z</time>
      </trkpt>
      <trkpt lat="48.50446" lon="7.03138">
        <ele>636.53</ele>
        <time>2018-08-02T13:27:44Z</time>
      </trkpt>
      <trkpt lat="48.50439" lon="7.03147">
        <ele>637.97</ele>
        <time>2018-08-02T13:27:55Z</time>
      </trkpt>
      <trkpt lat="48.50435" lon="7.03161">
        <ele>639.89</ele>
        <time>2018-08-02T13:28:07Z</time>
      </trkpt>
      <trkpt lat="48.50432" lon="7.03176">
        <ele>639.89</ele>
        <time>2018-08-02T13:28:18Z</time>
      </trkpt>
      <trkpt lat="48.50429" lon="7.03188">
        <ele>641.34</ele>
        <time>2018-08-02T13:28:30Z</time>
      </trkpt>
      <trkpt lat="48.50426" lon="7.03198">
        <ele>642.78</ele>
        <time>2018-08-02T13:28:43Z</time>
      </trkpt>
      <trkpt lat="48.50418" lon="7.03211">
        <ele>644.22</ele>
        <time>2018-08-02T13:28:56Z</time>
      </trkpt>
      <trkpt lat="48.50414" lon="7.03225">
        <ele>645.18</ele>
        <time>2018-08-02T13:29:09Z</time>
      </trkpt>
      <trkpt lat="48.50411" lon="7.03242">
        <ele>645.66</ele>
        <time>2018-08-02T13:29:20Z</time>
      </trkpt>
      <trkpt lat="48.50413" lon="7.03256">
        <ele>646.14</ele>
        <time>2018-08-02T13:29:32Z</time>
      </trkpt>
      <trkpt lat="48.50406" lon="7.03271">
        <ele>647.1</ele>
        <time>2018-08-02T13:29:46Z</time>
      </trkpt>
      <trkpt lat="48.50405" lon="7.03285">
        <ele>647.59</ele>
        <time>2018-08-02T13:30:00Z</time>
      </trkpt>
      <trkpt lat="48.50404" lon="7.03302">
        <ele>648.55</ele>
        <time>2018-08-02T13:30:11Z</time>
      </trkpt>
      <trkpt lat="48.50404" lon="7.03318">
        <ele>649.51</ele>
        <time>2018-08-02T13:30:21Z</time>
      </trkpt>
      <trkpt lat="48.50402" lon="7.03333">
        <ele>650.47</ele>
        <time>2018-08-02T13:30:32Z</time>
      </trkpt>
      <trkpt lat="48.50399" lon="7.03347">
        <ele>650.95</ele>
        <time>2018-08-02T13:30:43Z</time>
      </trkpt>
      <trkpt lat="48.50395" lon="7.0336">
        <ele>651.43</ele>
        <time>2018-08-02T13:30:53Z</time>
      </trkpt>
      <trkpt lat="48.50395" lon="7.03378">
        <ele>652.39</ele>
        <time>2018-08-02T13:31:05Z</time>
      </trkpt>
      <trkpt lat="48.50397" lon="7.03393">
        <ele>652.87</ele>
        <time>2018-08-02T13:31:19Z</time>
      </trkpt>
      <trkpt lat="48.50402" lon="7.03417">
        <ele>653.83</ele>
        <time>2018-08-02T13:31:35Z</time>
      </trkpt>
      <trkpt lat="48.50432" lon="7.03461">
        <ele>654.31</ele>
        <time>2018-08-02T13:31:51Z</time>
      </trkpt>
      <trkpt lat="48.50443" lon="7.03478">
        <ele>654.8</ele>
        <time>2018-08-02T13:32:02Z</time>
      </trkpt>
      <trkpt lat="48.50447" lon="7.03494">
        <ele>655.28</ele>
        <time>2018-08-02T13:32:14Z</time>
      </trkpt>
      <trkpt lat="48.50454" lon="7.03508">
        <ele>656.24</ele>
        <time>2018-08-02T13:32:25Z</time>
      </trkpt>
      <trkpt lat="48.50459" lon="7.0352">
        <ele>656.72</ele>
        <time>2018-08-02T13:32:40Z</time>
      </trkpt>
      <trkpt lat="48.50468" lon="7.0353">
        <ele>657.68</ele>
        <time>2018-08-02T13:32:53Z</time>
      </trkpt>
      <trkpt lat="48.50476" lon="7.03547">
        <ele>658.64</ele>
        <time>2018-08-02T13:33:06Z</time>
      </trkpt>
      <trkpt lat="48.50483" lon="7.03561">
        <ele>659.6</ele>
        <time>2018-08-02T13:33:20Z</time>
      </trkpt>
      <trkpt lat="48.50493" lon="7.03578">
        <ele>660.08</ele>
        <time>2018-08-02T13:33:34Z</time>
      </trkpt>
      <trkpt lat="48.505" lon="7.03594">
        <ele>660.56</ele>
        <time>2018-08-02T13:33:47Z</time>
      </trkpt>
      <trkpt lat="48.50504" lon="7.03609">
        <ele>661.52</ele>
        <time>2018-08-02T13:34:08Z</time>
      </trkpt>
      <trkpt lat="48.50511" lon="7.0363">
        <ele>662.01</ele>
        <time>2018-08-02T13:34:24Z</time>
      </trkpt>
      <trkpt lat="48.50523" lon="7.0365">
        <ele>662.49</ele>
        <time>2018-08-02T13:34:37Z</time>
      </trkpt>
      <trkpt lat="48.50527" lon="7.03663">
        <ele>662.97</ele>
        <time>2018-08-02T13:34:52Z</time>
      </trkpt>
      <trkpt lat="48.50533" lon="7.03677">
        <ele>663.45</ele>
        <time>2018-08-02T13:35:14Z</time>
      </trkpt>
      <trkpt lat="48.50535" lon="7.0369">
        <ele>664.41</ele>
        <time>2018-08-02T13:35:32Z</time>
      </trkpt>
      <trkpt lat="48.50532" lon="7.03708">
        <ele>665.85</ele>
        <time>2018-08-02T13:35:51Z</time>
      </trkpt>
      <trkpt lat="48.50547" lon="7.03736">
        <ele>665.85</ele>
        <time>2018-08-02T13:36:19Z</time>
      </trkpt>
      <trkpt lat="48.50547" lon="7.03747">
        <ele>666.81</ele>
        <time>2018-08-02T13:36:30Z</time>
      </trkpt>
      <trkpt lat="48.5055" lon="7.03761">
        <ele>667.29</ele>
        <time>2018-08-02T13:36:42Z</time>
      </trkpt>
      <trkpt lat="48.50544" lon="7.03776">
        <ele>668.73</ele>
        <time>2018-08-02T13:36:57Z</time>
      </trkpt>
      <trkpt lat="48.50548" lon="7.03797">
        <ele>669.22</ele>
        <time>2018-08-02T13:37:13Z</time>
      </trkpt>
      <trkpt lat="48.50547" lon="7.03809">
        <ele>670.18</ele>
        <time>2018-08-02T13:37:27Z</time>
      </trkpt>
      <trkpt lat="48.50543" lon="7.03823">
        <ele>671.14</ele>
        <time>2018-08-02T13:37:41Z</time>
      </trkpt>
      <trkpt lat="48.50542" lon="7.03847">
        <ele>672.1</ele>
        <time>2018-08-02T13:37:58Z</time>
      </trkpt>
      <trkpt lat="48.50539" lon="7.03865">
        <ele>673.06</ele>
        <time>2018-08-02T13:38:15Z</time>
      </trkpt>
      <trkpt lat="48.50536" lon="7.03882">
        <ele>674.5</ele>
        <time>2018-08-02T13:38:33Z</time>
      </trkpt>
      <trkpt lat="48.50528" lon="7.039">
        <ele>676.42</ele>
        <time>2018-08-02T13:38:50Z</time>
      </trkpt>
      <trkpt lat="48.5052" lon="7.03912">
        <ele>677.39</ele>
        <time>2018-08-02T13:39:03Z</time>
      </trkpt>
      <trkpt lat="48.50513" lon="7.03922">
        <ele>677.87</ele>
        <time>2018-08-02T13:39:15Z</time>
      </trkpt>
      <trkpt lat="48.50507" lon="7.03933">
        <ele>678.35</ele>
        <time>2018-08-02T13:39:26Z</time>
      </trkpt>
      <trkpt lat="48.5053" lon="7.03951">
        <ele>678.83</ele>
        <time>2018-08-02T13:40:01Z</time>
      </trkpt>
      <trkpt lat="48.50539" lon="7.03947">
        <ele>677.39</ele>
        <time>2018-08-02T13:40:49Z</time>
      </trkpt>
      <trkpt lat="48.50534" lon="7.03941">
        <ele>678.35</ele>
        <time>2018-08-02T13:41:00Z</time>
      </trkpt>
      <trkpt lat="48.50535" lon="7.03941">
        <ele>679.31</ele>
        <time>2018-08-02T13:42:03Z</time>
      </trkpt>
      <trkpt lat="48.50536" lon="7.03957">
        <ele>675.46</ele>
        <time>2018-08-02T13:51:21Z</time>
      </trkpt>
      <trkpt lat="48.50535" lon="7.03956">
        <ele>676.42</ele>
        <time>2018-08-02T13:52:20Z</time>
      </trkpt>
      <trkpt lat="48.50537" lon="7.03967">
        <ele>676.91</ele>
        <time>2018-08-02T13:52:33Z</time>
      </trkpt>
      <trkpt lat="48.50542" lon="7.03978">
        <ele>676.91</ele>
        <time>2018-08-02T13:52:45Z</time>
      </trkpt>
      <trkpt lat="48.50553" lon="7.03988">
        <ele>677.39</ele>
        <time>2018-08-02T13:52:57Z</time>
      </trkpt>
      <trkpt lat="48.50562" lon="7.03999">
        <ele>677.87</ele>
        <time>2018-08-02T13:53:17Z</time>
      </trkpt>
      <trkpt lat="48.50572" lon="7.04009">
        <ele>677.87</ele>
        <time>2018-08-02T13:53:30Z</time>
      </trkpt>
      <trkpt lat="48.50584" lon="7.04022">
        <ele>677.87</ele>
        <time>2018-08-02T13:53:40Z</time>
      </trkpt>
      <trkpt lat="48.50593" lon="7.0403">
        <ele>678.35</ele>
        <time>2018-08-02T13:53:50Z</time>
      </trkpt>
      <trkpt lat="48.50602" lon="7.04038">
        <ele>678.83</ele>
        <time>2018-08-02T13:54:03Z</time>
      </trkpt>
      <trkpt lat="48.50617" lon="7.04049">
        <ele>679.31</ele>
        <time>2018-08-02T13:54:16Z</time>
      </trkpt>
      <trkpt lat="48.50629" lon="7.04054">
        <ele>679.31</ele>
        <time>2018-08-02T13:54:29Z</time>
      </trkpt>
      <trkpt lat="48.50642" lon="7.04061">
        <ele>679.31</ele>
        <time>2018-08-02T13:54:45Z</time>
      </trkpt>
      <trkpt lat="48.50656" lon="7.04065">
        <ele>679.79</ele>
        <time>2018-08-02T13:55:01Z</time>
      </trkpt>
      <trkpt lat="48.50671" lon="7.04071">
        <ele>679.79</ele>
        <time>2018-08-02T13:55:13Z</time>
      </trkpt>
      <trkpt lat="48.50685" lon="7.04077">
        <ele>679.31</ele>
        <time>2018-08-02T13:55:23Z</time>
      </trkpt>
      <trkpt lat="48.50695" lon="7.04079">
        <ele>679.31</ele>
        <time>2018-08-02T13:55:35Z</time>
      </trkpt>
      <trkpt lat="48.50707" lon="7.04079">
        <ele>679.79</ele>
        <time>2018-08-02T13:55:45Z</time>
      </trkpt>
      <trkpt lat="48.50721" lon="7.04081">
        <ele>680.27</ele>
        <time>2018-08-02T13:55:55Z</time>
      </trkpt>
      <trkpt lat="48.5073" lon="7.04077">
        <ele>679.79</ele>
        <time>2018-08-02T13:56:05Z</time>
      </trkpt>
      <trkpt lat="48.50741" lon="7.04074">
        <ele>679.79</ele>
        <time>2018-08-02T13:56:14Z</time>
      </trkpt>
      <trkpt lat="48.50752" lon="7.0407">
        <ele>680.27</ele>
        <time>2018-08-02T13:56:23Z</time>
      </trkpt>
      <trkpt lat="48.50763" lon="7.04067">
        <ele>680.27</ele>
        <time>2018-08-02T13:56:32Z</time>
      </trkpt>
      <trkpt lat="48.50773" lon="7.04065">
        <ele>679.79</ele>
        <time>2018-08-02T13:56:41Z</time>
      </trkpt>
      <trkpt lat="48.50782" lon="7.04063">
        <ele>679.79</ele>
        <time>2018-08-02T13:56:50Z</time>
      </trkpt>
      <trkpt lat="48.50792" lon="7.0406">
        <ele>680.27</ele>
        <time>2018-08-02T13:56:59Z</time>
      </trkpt>
      <trkpt lat="48.50803" lon="7.04058">
        <ele>680.27</ele>
        <time>2018-08-02T13:57:08Z</time>
      </trkpt>
      <trkpt lat="48.50813" lon="7.04057">
        <ele>680.27</ele>
        <time>2018-08-02T13:57:17Z</time>
      </trkpt>
      <trkpt lat="48.50822" lon="7.04056">
        <ele>680.75</ele>
        <time>2018-08-02T13:57:26Z</time>
      </trkpt>
      <trkpt lat="48.50832" lon="7.04057">
        <ele>680.75</ele>
        <time>2018-08-02T13:57:35Z</time>
      </trkpt>
      <trkpt lat="48.50842" lon="7.04058">
        <ele>680.75</ele>
        <time>2018-08-02T13:57:44Z</time>
      </trkpt>
      <trkpt lat="48.50851" lon="7.04056">
        <ele>680.75</ele>
        <time>2018-08-02T13:57:53Z</time>
      </trkpt>
      <trkpt lat="48.50861" lon="7.04056">
        <ele>680.75</ele>
        <time>2018-08-02T13:58:02Z</time>
      </trkpt>
      <trkpt lat="48.50872" lon="7.04056">
        <ele>681.23</ele>
        <time>2018-08-02T13:58:11Z</time>
      </trkpt>
      <trkpt lat="48.50881" lon="7.0406">
        <ele>680.75</ele>
        <time>2018-08-02T13:58:20Z</time>
      </trkpt>
      <trkpt lat="48.5089" lon="7.04063">
        <ele>680.75</ele>
        <time>2018-08-02T13:58:29Z</time>
      </trkpt>
      <trkpt lat="48.50899" lon="7.04067">
        <ele>680.27</ele>
        <time>2018-08-02T13:58:38Z</time>
      </trkpt>
      <trkpt lat="48.50908" lon="7.04073">
        <ele>679.79</ele>
        <time>2018-08-02T13:58:47Z</time>
      </trkpt>
      <trkpt lat="48.50915" lon="7.04081">
        <ele>679.79</ele>
        <time>2018-08-02T13:58:56Z</time>
      </trkpt>
      <trkpt lat="48.5092" lon="7.04093">
        <ele>679.31</ele>
        <time>2018-08-02T13:59:05Z</time>
      </trkpt>
      <trkpt lat="48.50925" lon="7.04104">
        <ele>679.31</ele>
        <time>2018-08-02T13:59:14Z</time>
      </trkpt>
      <trkpt lat="48.5093" lon="7.04117">
        <ele>679.31</ele>
        <time>2018-08-02T13:59:23Z</time>
      </trkpt>
      <trkpt lat="48.50934" lon="7.04131">
        <ele>679.31</ele>
        <time>2018-08-02T13:59:32Z</time>
      </trkpt>
      <trkpt lat="48.50935" lon="7.04145">
        <ele>678.83</ele>
        <time>2018-08-02T13:59:41Z</time>
      </trkpt>
      <trkpt lat="48.50935" lon="7.04159">
        <ele>678.35</ele>
        <time>2018-08-02T13:59:50Z</time>
      </trkpt>
      <trkpt lat="48.50934" lon="7.04174">
        <ele>677.87</ele>
        <time>2018-08-02T13:59:59Z</time>
      </trkpt>
      <trkpt lat="48.50936" lon="7.04189">
        <ele>677.87</ele>
        <time>2018-08-02T14:00:08Z</time>
      </trkpt>
      <trkpt lat="48.50938" lon="7.04203">
        <ele>677.87</ele>
        <time>2018-08-02T14:00:17Z</time>
      </trkpt>
      <trkpt lat="48.50941" lon="7.04219">
        <ele>677.87</ele>
        <time>2018-08-02T14:00:26Z</time>
      </trkpt>
      <trkpt lat="48.50946" lon="7.04235">
        <ele>677.39</ele>
        <time>2018-08-02T14:00:35Z</time>
      </trkpt>
      <trkpt lat="48.50952" lon="7.04249">
        <ele>677.39</ele>
        <time>2018-08-02T14:00:43Z</time>
      </trkpt>
      <trkpt lat="48.50957" lon="7.04262">
        <ele>676.91</ele>
        <time>2018-08-02T14:00:52Z</time>
      </trkpt>
      <trkpt lat="48.50961" lon="7.04275">
        <ele>676.91</ele>
        <time>2018-08-02T14:01:01Z</time>
      </trkpt>
      <trkpt lat="48.50968" lon="7.04289">
        <ele>676.42</ele>
        <time>2018-08-02T14:01:10Z</time>
      </trkpt>
      <trkpt lat="48.50974" lon="7.043">
        <ele>675.94</ele>
        <time>2018-08-02T14:01:18Z</time>
      </trkpt>
      <trkpt lat="48.5098" lon="7.04312">
        <ele>675.94</ele>
        <time>2018-08-02T14:01:27Z</time>
      </trkpt>
      <trkpt lat="48.50986" lon="7.04323">
        <ele>675.46</ele>
        <time>2018-08-02T14:01:36Z</time>
      </trkpt>
      <trkpt lat="48.50993" lon="7.04336">
        <ele>674.98</ele>
        <time>2018-08-02T14:01:45Z</time>
      </trkpt>
      <trkpt lat="48.51" lon="7.04347">
        <ele>674.5</ele>
        <time>2018-08-02T14:01:54Z</time>
      </trkpt>
      <trkpt lat="48.51006" lon="7.04358">
        <ele>674.02</ele>
        <time>2018-08-02T14:02:03Z</time>
      </trkpt>
      <trkpt lat="48.51012" lon="7.0437">
        <ele>673.54</ele>
        <time>2018-08-02T14:02:12Z</time>
      </trkpt>
      <trkpt lat="48.51019" lon="7.04381">
        <ele>673.06</ele>
        <time>2018-08-02T14:02:21Z</time>
      </trkpt>
      <trkpt lat="48.51026" lon="7.04393">
        <ele>672.58</ele>
        <time>2018-08-02T14:02:30Z</time>
      </trkpt>
      <trkpt lat="48.51033" lon="7.04405">
        <ele>672.1</ele>
        <time>2018-08-02T14:02:39Z</time>
      </trkpt>
      <trkpt lat="48.5104" lon="7.04416">
        <ele>671.62</ele>
        <time>2018-08-02T14:02:48Z</time>
      </trkpt>
      <trkpt lat="48.51047" lon="7.04427">
        <ele>671.62</ele>
        <time>2018-08-02T14:02:57Z</time>
      </trkpt>
      <trkpt lat="48.51053" lon="7.04438">
        <ele>671.14</ele>
        <time>2018-08-02T14:03:06Z</time>
      </trkpt>
      <trkpt lat="48.51059" lon="7.04449">
        <ele>671.14</ele>
        <time>2018-08-02T14:03:15Z</time>
      </trkpt>
      <trkpt lat="48.51065" lon="7.04461">
        <ele>671.14</ele>
        <time>2018-08-02T14:03:24Z</time>
      </trkpt>
      <trkpt lat="48.5107" lon="7.04472">
        <ele>671.14</ele>
        <time>2018-08-02T14:03:33Z</time>
      </trkpt>
      <trkpt lat="48.51074" lon="7.04486">
        <ele>670.66</ele>
        <time>2018-08-02T14:03:42Z</time>
      </trkpt>
      <trkpt lat="48.51077" lon="7.04501">
        <ele>671.14</ele>
        <time>2018-08-02T14:03:51Z</time>
      </trkpt>
      <trkpt lat="48.5108" lon="7.04514">
        <ele>670.66</ele>
        <time>2018-08-02T14:04:01Z</time>
      </trkpt>
      <trkpt lat="48.51085" lon="7.0453">
        <ele>670.18</ele>
        <time>2018-08-02T14:04:11Z</time>
      </trkpt>
      <trkpt lat="48.51091" lon="7.04542">
        <ele>669.7</ele>
        <time>2018-08-02T14:04:21Z</time>
      </trkpt>
      <trkpt lat="48.51098" lon="7.04559">
        <ele>669.22</ele>
        <time>2018-08-02T14:04:34Z</time>
      </trkpt>
      <trkpt lat="48.51105" lon="7.04571">
        <ele>668.73</ele>
        <time>2018-08-02T14:04:46Z</time>
      </trkpt>
      <trkpt lat="48.51114" lon="7.04581">
        <ele>668.73</ele>
        <time>2018-08-02T14:05:05Z</time>
      </trkpt>
      <trkpt lat="48.51117" lon="7.04567">
        <ele>667.29</ele>
        <time>2018-08-02T14:05:25Z</time>
      </trkpt>
      <trkpt lat="48.51112" lon="7.04551">
        <ele>665.85</ele>
        <time>2018-08-02T14:05:40Z</time>
      </trkpt>
      <trkpt lat="48.51116" lon="7.04532">
        <ele>664.41</ele>
        <time>2018-08-02T14:05:58Z</time>
      </trkpt>
      <trkpt lat="48.51118" lon="7.04515">
        <ele>663.93</ele>
        <time>2018-08-02T14:06:11Z</time>
      </trkpt>
      <trkpt lat="48.51128" lon="7.04513">
        <ele>662.49</ele>
        <time>2018-08-02T14:06:26Z</time>
      </trkpt>
      <trkpt lat="48.51136" lon="7.04514">
        <ele>662.01</ele>
        <time>2018-08-02T14:06:41Z</time>
      </trkpt>
      <trkpt lat="48.51145" lon="7.04516">
        <ele>660.08</ele>
        <time>2018-08-02T14:06:59Z</time>
      </trkpt>
      <trkpt lat="48.51152" lon="7.04525">
        <ele>655.76</ele>
        <time>2018-08-02T14:07:24Z</time>
      </trkpt>
      <trkpt lat="48.51165" lon="7.04534">
        <ele>652.39</ele>
        <time>2018-08-02T14:07:47Z</time>
      </trkpt>
      <trkpt lat="48.51176" lon="7.04539">
        <ele>649.51</ele>
        <time>2018-08-02T14:08:03Z</time>
      </trkpt>
      <trkpt lat="48.51187" lon="7.04542">
        <ele>647.1</ele>
        <time>2018-08-02T14:08:17Z</time>
      </trkpt>
      <trkpt lat="48.51196" lon="7.04543">
        <ele>644.7</ele>
        <time>2018-08-02T14:08:32Z</time>
      </trkpt>
      <trkpt lat="48.51207" lon="7.04543">
        <ele>642.3</ele>
        <time>2018-08-02T14:08:44Z</time>
      </trkpt>
      <trkpt lat="48.51216" lon="7.04538">
        <ele>640.38</ele>
        <time>2018-08-02T14:08:55Z</time>
      </trkpt>
      <trkpt lat="48.51226" lon="7.0454">
        <ele>638.45</ele>
        <time>2018-08-02T14:09:08Z</time>
      </trkpt>
      <trkpt lat="48.51236" lon="7.04539">
        <ele>634.61</ele>
        <time>2018-08-02T14:09:31Z</time>
      </trkpt>
      <trkpt lat="48.51246" lon="7.04545">
        <ele>631.72</ele>
        <time>2018-08-02T14:09:54Z</time>
      </trkpt>
      <trkpt lat="48.51258" lon="7.04551">
        <ele>629.32</ele>
        <time>2018-08-02T14:10:13Z</time>
      </trkpt>
      <trkpt lat="48.51275" lon="7.04519">
        <ele>629.32</ele>
        <time>2018-08-02T14:10:52Z</time>
      </trkpt>
      <trkpt lat="48.51278" lon="7.04508">
        <ele>630.76</ele>
        <time>2018-08-02T14:11:15Z</time>
      </trkpt>
      <trkpt lat="48.51282" lon="7.045">
        <ele>630.76</ele>
        <time>2018-08-02T14:11:28Z</time>
      </trkpt>
      <trkpt lat="48.51291" lon="7.04495">
        <ele>628.84</ele>
        <time>2018-08-02T14:11:43Z</time>
      </trkpt>
      <trkpt lat="48.51299" lon="7.04491">
        <ele>628.36</ele>
        <time>2018-08-02T14:11:54Z</time>
      </trkpt>
      <trkpt lat="48.51307" lon="7.0448">
        <ele>628.36</ele>
        <time>2018-08-02T14:12:06Z</time>
      </trkpt>
      <trkpt lat="48.51312" lon="7.04465">
        <ele>628.36</ele>
        <time>2018-08-02T14:12:15Z</time>
      </trkpt>
      <trkpt lat="48.5132" lon="7.04448">
        <ele>628.36</ele>
        <time>2018-08-02T14:12:27Z</time>
      </trkpt>
      <trkpt lat="48.51327" lon="7.04431">
        <ele>627.4</ele>
        <time>2018-08-02T14:12:41Z</time>
      </trkpt>
      <trkpt lat="48.51337" lon="7.04413">
        <ele>626.44</ele>
        <time>2018-08-02T14:12:55Z</time>
      </trkpt>
      <trkpt lat="48.51343" lon="7.044">
        <ele>626.44</ele>
        <time>2018-08-02T14:13:05Z</time>
      </trkpt>
      <trkpt lat="48.51347" lon="7.04384">
        <ele>626.44</ele>
        <time>2018-08-02T14:13:15Z</time>
      </trkpt>
      <trkpt lat="48.51352" lon="7.04369">
        <ele>626.44</ele>
        <time>2018-08-02T14:13:26Z</time>
      </trkpt>
      <trkpt lat="48.51355" lon="7.04348">
        <ele>626.44</ele>
        <time>2018-08-02T14:13:38Z</time>
      </trkpt>
      <trkpt lat="48.51359" lon="7.0433">
        <ele>626.44</ele>
        <time>2018-08-02T14:13:48Z</time>
      </trkpt>
      <trkpt lat="48.5136" lon="7.04307">
        <ele>625.96</ele>
        <time>2018-08-02T14:13:58Z</time>
      </trkpt>
      <trkpt lat="48.51358" lon="7.04289">
        <ele>626.44</ele>
        <time>2018-08-02T14:14:07Z</time>
      </trkpt>
      <trkpt lat="48.51354" lon="7.04274">
        <ele>625.96</ele>
        <time>2018-08-02T14:14:15Z</time>
      </trkpt>
      <trkpt lat="48.51347" lon="7.04261">
        <ele>625.96</ele>
        <time>2018-08-02T14:14:23Z</time>
      </trkpt>
      <trkpt lat="48.51341" lon="7.04252">
        <ele>625.96</ele>
        <time>2018-08-02T14:14:33Z</time>
      </trkpt>
      <trkpt lat="48.51332" lon="7.04242">
        <ele>625.47</ele>
        <time>2018-08-02T14:14:42Z</time>
      </trkpt>
      <trkpt lat="48.51324" lon="7.04232">
        <ele>625.47</ele>
        <time>2018-08-02T14:14:51Z</time>
      </trkpt>
      <trkpt lat="48.51316" lon="7.04222">
        <ele>624.99</ele>
        <time>2018-08-02T14:14:59Z</time>
      </trkpt>
      <trkpt lat="48.51308" lon="7.04213">
        <ele>624.51</ele>
        <time>2018-08-02T14:15:07Z</time>
      </trkpt>
      <trkpt lat="48.513" lon="7.04205">
        <ele>624.51</ele>
        <time>2018-08-02T14:15:15Z</time>
      </trkpt>
      <trkpt lat="48.51291" lon="7.04196">
        <ele>624.03</ele>
        <time>2018-08-02T14:15:24Z</time>
      </trkpt>
      <trkpt lat="48.51282" lon="7.04189">
        <ele>624.03</ele>
        <time>2018-08-02T14:15:32Z</time>
      </trkpt>
      <trkpt lat="48.51273" lon="7.04184">
        <ele>624.03</ele>
        <time>2018-08-02T14:15:40Z</time>
      </trkpt>
      <trkpt lat="48.51263" lon="7.04178">
        <ele>624.03</ele>
        <time>2018-08-02T14:15:48Z</time>
      </trkpt>
      <trkpt lat="48.51254" lon="7.04173">
        <ele>623.55</ele>
        <time>2018-08-02T14:15:56Z</time>
      </trkpt>
      <trkpt lat="48.51246" lon="7.04167">
        <ele>623.55</ele>
        <time>2018-08-02T14:16:04Z</time>
      </trkpt>
      <trkpt lat="48.51237" lon="7.04163">
        <ele>623.55</ele>
        <time>2018-08-02T14:16:12Z</time>
      </trkpt>
      <trkpt lat="48.51228" lon="7.04158">
        <ele>623.55</ele>
        <time>2018-08-02T14:16:21Z</time>
      </trkpt>
      <trkpt lat="48.5122" lon="7.04152">
        <ele>623.07</ele>
        <time>2018-08-02T14:16:29Z</time>
      </trkpt>
      <trkpt lat="48.5121" lon="7.04148">
        <ele>622.59</ele>
        <time>2018-08-02T14:16:39Z</time>
      </trkpt>
      <trkpt lat="48.51201" lon="7.04144">
        <ele>622.59</ele>
        <time>2018-08-02T14:16:47Z</time>
      </trkpt>
      <trkpt lat="48.51191" lon="7.0414">
        <ele>622.11</ele>
        <time>2018-08-02T14:16:55Z</time>
      </trkpt>
      <trkpt lat="48.51181" lon="7.04137">
        <ele>622.11</ele>
        <time>2018-08-02T14:17:05Z</time>
      </trkpt>
      <trkpt lat="48.5117" lon="7.04135">
        <ele>621.63</ele>
        <time>2018-08-02T14:17:14Z</time>
      </trkpt>
      <trkpt lat="48.51159" lon="7.04132">
        <ele>621.63</ele>
        <time>2018-08-02T14:17:22Z</time>
      </trkpt>
      <trkpt lat="48.51147" lon="7.0413">
        <ele>621.15</ele>
        <time>2018-08-02T14:17:31Z</time>
      </trkpt>
      <trkpt lat="48.51138" lon="7.0413">
        <ele>621.15</ele>
        <time>2018-08-02T14:17:39Z</time>
      </trkpt>
      <trkpt lat="48.51128" lon="7.04126">
        <ele>621.63</ele>
        <time>2018-08-02T14:17:47Z</time>
      </trkpt>
      <trkpt lat="48.51119" lon="7.0412">
        <ele>621.63</ele>
        <time>2018-08-02T14:17:56Z</time>
      </trkpt>
      <trkpt lat="48.51119" lon="7.04113">
        <ele>620.67</ele>
        <time>2018-08-02T14:20:13Z</time>
      </trkpt>
      <trkpt lat="48.51117" lon="7.04116">
        <ele>620.19</ele>
        <time>2018-08-02T14:22:15Z</time>
      </trkpt>
      <trkpt lat="48.51125" lon="7.04114">
        <ele>617.78</ele>
        <time>2018-08-02T14:22:31Z</time>
      </trkpt>
      <trkpt lat="48.51132" lon="7.04112">
        <ele>615.86</ele>
        <time>2018-08-02T14:22:47Z</time>
      </trkpt>
      <trkpt lat="48.51141" lon="7.04106">
        <ele>614.9</ele>
        <time>2018-08-02T14:23:00Z</time>
      </trkpt>
      <trkpt lat="48.51149" lon="7.04103">
        <ele>612.98</ele>
        <time>2018-08-02T14:23:15Z</time>
      </trkpt>
      <trkpt lat="48.5116" lon="7.04097">
        <ele>611.54</ele>
        <time>2018-08-02T14:23:32Z</time>
      </trkpt>
      <trkpt lat="48.51169" lon="7.0409">
        <ele>609.61</ele>
        <time>2018-08-02T14:23:46Z</time>
      </trkpt>
      <trkpt lat="48.51181" lon="7.04082">
        <ele>606.73</ele>
        <time>2018-08-02T14:24:09Z</time>
      </trkpt>
      <trkpt lat="48.51193" lon="7.04077">
        <ele>604.33</ele>
        <time>2018-08-02T14:24:31Z</time>
      </trkpt>
      <trkpt lat="48.51205" lon="7.04072">
        <ele>602.4</ele>
        <time>2018-08-02T14:24:47Z</time>
      </trkpt>
      <trkpt lat="48.51216" lon="7.04068">
        <ele>600.48</ele>
        <time>2018-08-02T14:25:06Z</time>
      </trkpt>
      <trkpt lat="48.51227" lon="7.04065">
        <ele>598.08</ele>
        <time>2018-08-02T14:25:26Z</time>
      </trkpt>
      <trkpt lat="48.51241" lon="7.04053">
        <ele>594.71</ele>
        <time>2018-08-02T14:25:58Z</time>
      </trkpt>
      <trkpt lat="48.51251" lon="7.04053">
        <ele>590.87</ele>
        <time>2018-08-02T14:26:32Z</time>
      </trkpt>
      <trkpt lat="48.51266" lon="7.04051">
        <ele>587.5</ele>
        <time>2018-08-02T14:26:56Z</time>
      </trkpt>
      <trkpt lat="48.51282" lon="7.04042">
        <ele>583.66</ele>
        <time>2018-08-02T14:27:29Z</time>
      </trkpt>
      <trkpt lat="48.51298" lon="7.04045">
        <ele>580.77</ele>
        <time>2018-08-02T14:27:50Z</time>
      </trkpt>
      <trkpt lat="48.51313" lon="7.04036">
        <ele>576.45</ele>
        <time>2018-08-02T14:28:36Z</time>
      </trkpt>
      <trkpt lat="48.51325" lon="7.04039">
        <ele>572.12</ele>
        <time>2018-08-02T14:29:12Z</time>
      </trkpt>
      <trkpt lat="48.51336" lon="7.04043">
        <ele>569.72</ele>
        <time>2018-08-02T14:29:34Z</time>
      </trkpt>
      <trkpt lat="48.51349" lon="7.04044">
        <ele>566.35</ele>
        <time>2018-08-02T14:29:55Z</time>
      </trkpt>
      <trkpt lat="48.51363" lon="7.04047">
        <ele>564.43</ele>
        <time>2018-08-02T14:30:14Z</time>
      </trkpt>
      <trkpt lat="48.51374" lon="7.04048">
        <ele>560.59</ele>
        <time>2018-08-02T14:30:36Z</time>
      </trkpt>
      <trkpt lat="48.51385" lon="7.04038">
        <ele>557.22</ele>
        <time>2018-08-02T14:30:54Z</time>
      </trkpt>
      <trkpt lat="48.51397" lon="7.04033">
        <ele>554.34</ele>
        <time>2018-08-02T14:31:10Z</time>
      </trkpt>
      <trkpt lat="48.5141" lon="7.04032">
        <ele>550.97</ele>
        <time>2018-08-02T14:31:27Z</time>
      </trkpt>
      <trkpt lat="48.51421" lon="7.0403">
        <ele>548.57</ele>
        <time>2018-08-02T14:31:42Z</time>
      </trkpt>
      <trkpt lat="48.51433" lon="7.04027">
        <ele>546.17</ele>
        <time>2018-08-02T14:31:59Z</time>
      </trkpt>
      <trkpt lat="48.51442" lon="7.04027">
        <ele>543.76</ele>
        <time>2018-08-02T14:32:18Z</time>
      </trkpt>
      <trkpt lat="48.51453" lon="7.04021">
        <ele>539.44</ele>
        <time>2018-08-02T14:32:38Z</time>
      </trkpt>
      <trkpt lat="48.51461" lon="7.04014">
        <ele>535.59</ele>
        <time>2018-08-02T14:32:57Z</time>
      </trkpt>
      <trkpt lat="48.5147" lon="7.03991">
        <ele>534.63</ele>
        <time>2018-08-02T14:33:13Z</time>
      </trkpt>
      <trkpt lat="48.51474" lon="7.0398">
        <ele>535.11</ele>
        <time>2018-08-02T14:33:31Z</time>
      </trkpt>
      <trkpt lat="48.51482" lon="7.03979">
        <ele>534.63</ele>
        <time>2018-08-02T14:33:56Z</time>
      </trkpt>
      <trkpt lat="48.51483" lon="7.03967">
        <ele>534.63</ele>
        <time>2018-08-02T14:35:46Z</time>
      </trkpt>
      <trkpt lat="48.51492" lon="7.0397">
        <ele>533.19</ele>
        <time>2018-08-02T14:36:01Z</time>
      </trkpt>
      <trkpt lat="48.51501" lon="7.03977">
        <ele>531.27</ele>
        <time>2018-08-02T14:36:15Z</time>
      </trkpt>
      <trkpt lat="48.51511" lon="7.03984">
        <ele>530.3</ele>
        <time>2018-08-02T14:36:26Z</time>
      </trkpt>
      <trkpt lat="48.5152" lon="7.03988">
        <ele>528.86</ele>
        <time>2018-08-02T14:36:38Z</time>
      </trkpt>
      <trkpt lat="48.51531" lon="7.03993">
        <ele>526.94</ele>
        <time>2018-08-02T14:36:50Z</time>
      </trkpt>
      <trkpt lat="48.5154" lon="7.03998">
        <ele>525.98</ele>
        <time>2018-08-02T14:37:01Z</time>
      </trkpt>
      <trkpt lat="48.5155" lon="7.04002">
        <ele>525.02</ele>
        <time>2018-08-02T14:37:11Z</time>
      </trkpt>
      <trkpt lat="48.51559" lon="7.04004">
        <ele>524.06</ele>
        <time>2018-08-02T14:37:20Z</time>
      </trkpt>
      <trkpt lat="48.51569" lon="7.04007">
        <ele>523.58</ele>
        <time>2018-08-02T14:37:28Z</time>
      </trkpt>
      <trkpt lat="48.51581" lon="7.0401">
        <ele>522.61</ele>
        <time>2018-08-02T14:37:37Z</time>
      </trkpt>
      <trkpt lat="48.51592" lon="7.04009">
        <ele>521.65</ele>
        <time>2018-08-02T14:37:46Z</time>
      </trkpt>
      <trkpt lat="48.516" lon="7.04012">
        <ele>520.69</ele>
        <time>2018-08-02T14:37:57Z</time>
      </trkpt>
      <trkpt lat="48.51609" lon="7.04018">
        <ele>519.73</ele>
        <time>2018-08-02T14:38:08Z</time>
      </trkpt>
      <trkpt lat="48.51618" lon="7.04024">
        <ele>517.33</ele>
        <time>2018-08-02T14:38:19Z</time>
      </trkpt>
      <trkpt lat="48.51629" lon="7.0403">
        <ele>515.4</ele>
        <time>2018-08-02T14:38:30Z</time>
      </trkpt>
      <trkpt lat="48.51638" lon="7.04037">
        <ele>514.44</ele>
        <time>2018-08-02T14:38:39Z</time>
      </trkpt>
      <trkpt lat="48.51647" lon="7.04044">
        <ele>513.96</ele>
        <time>2018-08-02T14:38:48Z</time>
      </trkpt>
      <trkpt lat="48.51656" lon="7.04049">
        <ele>513.48</ele>
        <time>2018-08-02T14:38:57Z</time>
      </trkpt>
      <trkpt lat="48.51665" lon="7.04052">
        <ele>513</ele>
        <time>2018-08-02T14:39:07Z</time>
      </trkpt>
      <trkpt lat="48.51675" lon="7.04051">
        <ele>513</ele>
        <time>2018-08-02T14:39:16Z</time>
      </trkpt>
      <trkpt lat="48.51686" lon="7.04051">
        <ele>513</ele>
        <time>2018-08-02T14:39:26Z</time>
      </trkpt>
      <trkpt lat="48.51694" lon="7.0405">
        <ele>512.52</ele>
        <time>2018-08-02T14:39:41Z</time>
      </trkpt>
      <trkpt lat="48.51706" lon="7.04053">
        <ele>511.56</ele>
        <time>2018-08-02T14:39:53Z</time>
      </trkpt>
      <trkpt lat="48.51717" lon="7.04054">
        <ele>511.08</ele>
        <time>2018-08-02T14:40:04Z</time>
      </trkpt>
      <trkpt lat="48.51728" lon="7.04056">
        <ele>510.12</ele>
        <time>2018-08-02T14:40:15Z</time>
      </trkpt>
      <trkpt lat="48.51739" lon="7.04058">
        <ele>509.64</ele>
        <time>2018-08-02T14:40:25Z</time>
      </trkpt>
      <trkpt lat="48.51749" lon="7.04058">
        <ele>508.67</ele>
        <time>2018-08-02T14:40:35Z</time>
      </trkpt>
      <trkpt lat="48.51761" lon="7.0406">
        <ele>507.23</ele>
        <time>2018-08-02T14:40:46Z</time>
      </trkpt>
      <trkpt lat="48.5177" lon="7.04064">
        <ele>506.27</ele>
        <time>2018-08-02T14:40:56Z</time>
      </trkpt>
      <trkpt lat="48.5178" lon="7.04067">
        <ele>504.83</ele>
        <time>2018-08-02T14:41:06Z</time>
      </trkpt>
      <trkpt lat="48.51792" lon="7.0407">
        <ele>504.35</ele>
        <time>2018-08-02T14:41:18Z</time>
      </trkpt>
      <trkpt lat="48.51802" lon="7.04071">
        <ele>503.39</ele>
        <time>2018-08-02T14:41:29Z</time>
      </trkpt>
      <trkpt lat="48.51814" lon="7.04071">
        <ele>501.95</ele>
        <time>2018-08-02T14:41:40Z</time>
      </trkpt>
      <trkpt lat="48.51824" lon="7.04072">
        <ele>500.98</ele>
        <time>2018-08-02T14:41:52Z</time>
      </trkpt>
      <trkpt lat="48.51833" lon="7.04072">
        <ele>499.54</ele>
        <time>2018-08-02T14:42:03Z</time>
      </trkpt>
      <trkpt lat="48.51844" lon="7.04071">
        <ele>498.1</ele>
        <time>2018-08-02T14:42:14Z</time>
      </trkpt>
      <trkpt lat="48.51855" lon="7.04071">
        <ele>496.66</ele>
        <time>2018-08-02T14:42:24Z</time>
      </trkpt>
      <trkpt lat="48.51866" lon="7.0407">
        <ele>495.7</ele>
        <time>2018-08-02T14:42:35Z</time>
      </trkpt>
      <trkpt lat="48.51879" lon="7.0407">
        <ele>494.74</ele>
        <time>2018-08-02T14:42:46Z</time>
      </trkpt>
      <trkpt lat="48.5189" lon="7.04072">
        <ele>493.77</ele>
        <time>2018-08-02T14:42:55Z</time>
      </trkpt>
      <trkpt lat="48.51899" lon="7.04072">
        <ele>492.33</ele>
        <time>2018-08-02T14:43:05Z</time>
      </trkpt>
      <trkpt lat="48.51909" lon="7.04074">
        <ele>491.37</ele>
        <time>2018-08-02T14:43:15Z</time>
      </trkpt>
      <trkpt lat="48.51918" lon="7.04078">
        <ele>490.41</ele>
        <time>2018-08-02T14:43:25Z</time>
      </trkpt>
      <trkpt lat="48.51929" lon="7.04082">
        <ele>489.45</ele>
        <time>2018-08-02T14:43:37Z</time>
      </trkpt>
      <trkpt lat="48.51939" lon="7.04088">
        <ele>488.01</ele>
        <time>2018-08-02T14:43:50Z</time>
      </trkpt>
      <trkpt lat="48.5195" lon="7.04094">
        <ele>486.56</ele>
        <time>2018-08-02T14:44:02Z</time>
      </trkpt>
      <trkpt lat="48.51958" lon="7.04102">
        <ele>485.12</ele>
        <time>2018-08-02T14:44:14Z</time>
      </trkpt>
      <trkpt lat="48.51966" lon="7.0411">
        <ele>482.72</ele>
        <time>2018-08-02T14:44:28Z</time>
      </trkpt>
      <trkpt lat="48.51977" lon="7.04116">
        <ele>480.8</ele>
        <time>2018-08-02T14:44:46Z</time>
      </trkpt>
      <trkpt lat="48.51988" lon="7.04117">
        <ele>480.32</ele>
        <time>2018-08-02T14:45:31Z</time>
      </trkpt>
      <trkpt lat="48.51994" lon="7.04122">
        <ele>478.87</ele>
        <time>2018-08-02T14:46:13Z</time>
      </trkpt>
      <trkpt lat="48.51989" lon="7.04129">
        <ele>478.87</ele>
        <time>2018-08-02T14:46:57Z</time>
      </trkpt>
      <trkpt lat="48.51979" lon="7.04122">
        <ele>478.87</ele>
        <time>2018-08-02T14:47:22Z</time>
      </trkpt>
      <trkpt lat="48.51989" lon="7.04128">
        <ele>477.91</ele>
        <time>2018-08-02T14:48:00Z</time>
      </trkpt>
      <trkpt lat="48.51994" lon="7.04123">
        <ele>477.43</ele>
        <time>2018-08-02T14:48:23Z</time>
      </trkpt>
      <trkpt lat="48.52004" lon="7.04116">
        <ele>476.95</ele>
        <time>2018-08-02T14:49:22Z</time>
      </trkpt>
      <trkpt lat="48.52012" lon="7.04114">
        <ele>476.47</ele>
        <time>2018-08-02T14:49:32Z</time>
      </trkpt>
      <trkpt lat="48.52019" lon="7.04109">
        <ele>475.99</ele>
        <time>2018-08-02T14:49:43Z</time>
      </trkpt>
      <trkpt lat="48.52027" lon="7.04102">
        <ele>475.51</ele>
        <time>2018-08-02T14:49:54Z</time>
      </trkpt>
      <trkpt lat="48.52033" lon="7.04091">
        <ele>475.03</ele>
        <time>2018-08-02T14:50:05Z</time>
      </trkpt>
      <trkpt lat="48.5204" lon="7.0408">
        <ele>475.03</ele>
        <time>2018-08-02T14:50:15Z</time>
      </trkpt>
      <trkpt lat="48.52048" lon="7.04066">
        <ele>474.55</ele>
        <time>2018-08-02T14:50:25Z</time>
      </trkpt>
      <trkpt lat="48.52056" lon="7.04054">
        <ele>474.07</ele>
        <time>2018-08-02T14:50:35Z</time>
      </trkpt>
      <trkpt lat="48.52061" lon="7.04041">
        <ele>473.59</ele>
        <time>2018-08-02T14:50:45Z</time>
      </trkpt>
      <trkpt lat="48.52065" lon="7.04027">
        <ele>473.11</ele>
        <time>2018-08-02T14:50:55Z</time>
      </trkpt>
      <trkpt lat="48.52071" lon="7.0401">
        <ele>472.63</ele>
        <time>2018-08-02T14:51:05Z</time>
      </trkpt>
      <trkpt lat="48.52074" lon="7.03992">
        <ele>472.14</ele>
        <time>2018-08-02T14:51:15Z</time>
      </trkpt>
      <trkpt lat="48.52077" lon="7.03977">
        <ele>471.66</ele>
        <time>2018-08-02T14:51:25Z</time>
      </trkpt>
      <trkpt lat="48.52079" lon="7.03959">
        <ele>471.18</ele>
        <time>2018-08-02T14:51:35Z</time>
      </trkpt>
      <trkpt lat="48.5208" lon="7.03942">
        <ele>470.7</ele>
        <time>2018-08-02T14:51:45Z</time>
      </trkpt>
      <trkpt lat="48.52084" lon="7.03926">
        <ele>470.22</ele>
        <time>2018-08-02T14:51:55Z</time>
      </trkpt>
      <trkpt lat="48.52086" lon="7.03913">
        <ele>469.74</ele>
        <time>2018-08-02T14:52:04Z</time>
      </trkpt>
      <trkpt lat="48.52086" lon="7.039">
        <ele>469.26</ele>
        <time>2018-08-02T14:52:14Z</time>
      </trkpt>
      <trkpt lat="48.52088" lon="7.03886">
        <ele>468.78</ele>
        <time>2018-08-02T14:52:25Z</time>
      </trkpt>
      <trkpt lat="48.52093" lon="7.03873">
        <ele>467.82</ele>
        <time>2018-08-02T14:52:34Z</time>
      </trkpt>
      <trkpt lat="48.52094" lon="7.03861">
        <ele>467.82</ele>
        <time>2018-08-02T14:52:43Z</time>
      </trkpt>
      <trkpt lat="48.52098" lon="7.03847">
        <ele>467.34</ele>
        <time>2018-08-02T14:52:53Z</time>
      </trkpt>
      <trkpt lat="48.52102" lon="7.03835">
        <ele>466.86</ele>
        <time>2018-08-02T14:53:03Z</time>
      </trkpt>
      <trkpt lat="48.52107" lon="7.03822">
        <ele>466.38</ele>
        <time>2018-08-02T14:53:13Z</time>
      </trkpt>
      <trkpt lat="48.52113" lon="7.0381">
        <ele>465.9</ele>
        <time>2018-08-02T14:53:22Z</time>
      </trkpt>
      <trkpt lat="48.5212" lon="7.03796">
        <ele>465.9</ele>
        <time>2018-08-02T14:53:31Z</time>
      </trkpt>
      <trkpt lat="48.52128" lon="7.03781">
        <ele>465.42</ele>
        <time>2018-08-02T14:53:40Z</time>
      </trkpt>
      <trkpt lat="48.52135" lon="7.03767">
        <ele>464.93</ele>
        <time>2018-08-02T14:53:50Z</time>
      </trkpt>
      <trkpt lat="48.52143" lon="7.03758">
        <ele>464.45</ele>
        <time>2018-08-02T14:54:00Z</time>
      </trkpt>
      <trkpt lat="48.52151" lon="7.03751">
        <ele>464.45</ele>
        <time>2018-08-02T14:54:10Z</time>
      </trkpt>
      <trkpt lat="48.52161" lon="7.03742">
        <ele>463.97</ele>
        <time>2018-08-02T14:54:20Z</time>
      </trkpt>
      <trkpt lat="48.52169" lon="7.03734">
        <ele>463.49</ele>
        <time>2018-08-02T14:54:31Z</time>
      </trkpt>
      <trkpt lat="48.52178" lon="7.03726">
        <ele>463.01</ele>
        <time>2018-08-02T14:54:41Z</time>
      </trkpt>
      <trkpt lat="48.52186" lon="7.03713">
        <ele>463.01</ele>
        <time>2018-08-02T14:54:51Z</time>
      </trkpt>
      <trkpt lat="48.52194" lon="7.03704">
        <ele>462.53</ele>
        <time>2018-08-02T14:55:00Z</time>
      </trkpt>
      <trkpt lat="48.52203" lon="7.03693">
        <ele>462.05</ele>
        <time>2018-08-02T14:55:10Z</time>
      </trkpt>
      <trkpt lat="48.52211" lon="7.0368">
        <ele>461.57</ele>
        <time>2018-08-02T14:55:19Z</time>
      </trkpt>
      <trkpt lat="48.52217" lon="7.03669">
        <ele>462.05</ele>
        <time>2018-08-02T14:55:28Z</time>
      </trkpt>
      <trkpt lat="48.52224" lon="7.03659">
        <ele>462.05</ele>
        <time>2018-08-02T14:55:37Z</time>
      </trkpt>
      <trkpt lat="48.5223" lon="7.03647">
        <ele>461.57</ele>
        <time>2018-08-02T14:55:46Z</time>
      </trkpt>
      <trkpt lat="48.52237" lon="7.03635">
        <ele>461.57</ele>
        <time>2018-08-02T14:55:55Z</time>
      </trkpt>
      <trkpt lat="48.52244" lon="7.03624">
        <ele>461.09</ele>
        <time>2018-08-02T14:56:03Z</time>
      </trkpt>
      <trkpt lat="48.5225" lon="7.03611">
        <ele>460.61</ele>
        <time>2018-08-02T14:56:12Z</time>
      </trkpt>
      <trkpt lat="48.52257" lon="7.03599">
        <ele>460.61</ele>
        <time>2018-08-02T14:56:21Z</time>
      </trkpt>
      <trkpt lat="48.52265" lon="7.0358">
        <ele>460.13</ele>
        <time>2018-08-02T14:56:32Z</time>
      </trkpt>
      <trkpt lat="48.52275" lon="7.03566">
        <ele>460.13</ele>
        <time>2018-08-02T14:56:44Z</time>
      </trkpt>
      <trkpt lat="48.52283" lon="7.03558">
        <ele>459.65</ele>
        <time>2018-08-02T14:56:56Z</time>
      </trkpt>
      <trkpt lat="48.52293" lon="7.03551">
        <ele>459.17</ele>
        <time>2018-08-02T14:57:07Z</time>
      </trkpt>
      <trkpt lat="48.52304" lon="7.03541">
        <ele>458.69</ele>
        <time>2018-08-02T14:57:16Z</time>
      </trkpt>
      <trkpt lat="48.52315" lon="7.03533">
        <ele>458.69</ele>
        <time>2018-08-02T14:57:28Z</time>
      </trkpt>
      <trkpt lat="48.52329" lon="7.03524">
        <ele>458.21</ele>
        <time>2018-08-02T14:57:39Z</time>
      </trkpt>
      <trkpt lat="48.52339" lon="7.0352">
        <ele>458.21</ele>
        <time>2018-08-02T14:57:50Z</time>
      </trkpt>
      <trkpt lat="48.52349" lon="7.03517">
        <ele>458.21</ele>
        <time>2018-08-02T14:58:00Z</time>
      </trkpt>
      <trkpt lat="48.52353" lon="7.03513">
        <ele>458.21</ele>
        <time>2018-08-02T14:58:10Z</time>
      </trkpt>
      <trkpt lat="48.52361" lon="7.03504">
        <ele>458.21</ele>
        <time>2018-08-02T14:58:21Z</time>
      </trkpt>
      <trkpt lat="48.52375" lon="7.0349">
        <ele>458.21</ele>
        <time>2018-08-02T14:58:34Z</time>
      </trkpt>
      <trkpt lat="48.52392" lon="7.03483">
        <ele>457.72</ele>
        <time>2018-08-02T14:58:45Z</time>
      </trkpt>
      <trkpt lat="48.52412" lon="7.0346">
        <ele>458.21</ele>
        <time>2018-08-02T14:59:22Z</time>
      </trkpt>
      <trkpt lat="48.52417" lon="7.03456">
        <ele>457.72</ele>
        <time>2018-08-02T14:59:50Z</time>
      </trkpt>
      <trkpt lat="48.52423" lon="7.03446">
        <ele>457.24</ele>
        <time>2018-08-02T15:00:01Z</time>
      </trkpt>
      <trkpt lat="48.52425" lon="7.03429">
        <ele>456.76</ele>
        <time>2018-08-02T15:00:28Z</time>
      </trkpt>
      <trkpt lat="48.52421" lon="7.03416">
        <ele>455.8</ele>
        <time>2018-08-02T15:00:47Z</time>
      </trkpt>
      <trkpt lat="48.52418" lon="7.034">
        <ele>455.32</ele>
        <time>2018-08-02T15:01:03Z</time>
      </trkpt>
      <trkpt lat="48.52413" lon="7.03384">
        <ele>454.36</ele>
        <time>2018-08-02T15:01:20Z</time>
      </trkpt>
      <trkpt lat="48.52404" lon="7.03367">
        <ele>453.88</ele>
        <time>2018-08-02T15:02:19Z</time>
      </trkpt>
      <trkpt lat="48.52392" lon="7.03356">
        <ele>452.92</ele>
        <time>2018-08-02T15:03:32Z</time>
      </trkpt>
      <trkpt lat="48.52384" lon="7.03343">
        <ele>452.92</ele>
        <time>2018-08-02T15:03:44Z</time>
      </trkpt>
      <trkpt lat="48.52376" lon="7.03329">
        <ele>452.44</ele>
        <time>2018-08-02T15:03:56Z</time>
      </trkpt>
      <trkpt lat="48.52368" lon="7.03317">
        <ele>451.96</ele>
        <time>2018-08-02T15:04:08Z</time>
      </trkpt>
      <trkpt lat="48.5236" lon="7.03306">
        <ele>451.96</ele>
        <time>2018-08-02T15:04:19Z</time>
      </trkpt>
      <trkpt lat="48.52353" lon="7.03293">
        <ele>451.48</ele>
        <time>2018-08-02T15:04:32Z</time>
      </trkpt>
      <trkpt lat="48.52347" lon="7.03283">
        <ele>451</ele>
        <time>2018-08-02T15:04:43Z</time>
      </trkpt>
      <trkpt lat="48.52342" lon="7.03272">
        <ele>451</ele>
        <time>2018-08-02T15:04:53Z</time>
      </trkpt>
      <trkpt lat="48.52335" lon="7.03262">
        <ele>450.52</ele>
        <time>2018-08-02T15:05:24Z</time>
      </trkpt>
      <trkpt lat="48.52334" lon="7.03247">
        <ele>450.03</ele>
        <time>2018-08-02T15:05:42Z</time>
      </trkpt>
      <trkpt lat="48.52333" lon="7.03232">
        <ele>450.03</ele>
        <time>2018-08-02T15:05:52Z</time>
      </trkpt>
      <trkpt lat="48.52336" lon="7.03217">
        <ele>449.55</ele>
        <time>2018-08-02T15:06:02Z</time>
      </trkpt>
      <trkpt lat="48.52339" lon="7.03204">
        <ele>449.07</ele>
        <time>2018-08-02T15:06:12Z</time>
      </trkpt>
      <trkpt lat="48.52341" lon="7.0319">
        <ele>448.59</ele>
        <time>2018-08-02T15:06:23Z</time>
      </trkpt>
      <trkpt lat="48.52344" lon="7.03175">
        <ele>448.59</ele>
        <time>2018-08-02T15:06:33Z</time>
      </trkpt>
      <trkpt lat="48.52348" lon="7.0316">
        <ele>447.63</ele>
        <time>2018-08-02T15:06:43Z</time>
      </trkpt>
      <trkpt lat="48.52351" lon="7.03147">
        <ele>447.15</ele>
        <time>2018-08-02T15:06:52Z</time>
      </trkpt>
      <trkpt lat="48.52355" lon="7.03134">
        <ele>446.67</ele>
        <time>2018-08-02T15:07:02Z</time>
      </trkpt>
      <trkpt lat="48.52357" lon="7.03119">
        <ele>446.67</ele>
        <time>2018-08-02T15:07:13Z</time>
      </trkpt>
      <trkpt lat="48.52359" lon="7.03105">
        <ele>446.19</ele>
        <time>2018-08-02T15:07:24Z</time>
      </trkpt>
      <trkpt lat="48.52358" lon="7.03089">
        <ele>445.23</ele>
        <time>2018-08-02T15:07:35Z</time>
      </trkpt>
      <trkpt lat="48.52358" lon="7.03071">
        <ele>444.75</ele>
        <time>2018-08-02T15:07:46Z</time>
      </trkpt>
      <trkpt lat="48.52358" lon="7.03047">
        <ele>443.79</ele>
        <time>2018-08-02T15:07:57Z</time>
      </trkpt>
      <trkpt lat="48.52355" lon="7.03033">
        <ele>443.31</ele>
        <time>2018-08-02T15:08:08Z</time>
      </trkpt>
      <trkpt lat="48.52355" lon="7.03013">
        <ele>442.82</ele>
        <time>2018-08-02T15:08:19Z</time>
      </trkpt>
      <trkpt lat="48.52355" lon="7.02995">
        <ele>442.34</ele>
        <time>2018-08-02T15:08:29Z</time>
      </trkpt>
      <trkpt lat="48.52354" lon="7.02977">
        <ele>441.86</ele>
        <time>2018-08-02T15:08:41Z</time>
      </trkpt>
      <trkpt lat="48.52351" lon="7.02968">
        <ele>444.27</ele>
        <time>2018-08-02T15:09:07Z</time>
      </trkpt>
      <trkpt lat="48.52354" lon="7.02959">
        <ele>443.79</ele>
        <time>2018-08-02T15:09:23Z</time>
      </trkpt>
      <trkpt lat="48.52359" lon="7.02947">
        <ele>443.79</ele>
        <time>2018-08-02T15:09:35Z</time>
      </trkpt>
      <trkpt lat="48.52365" lon="7.02932">
        <ele>444.27</ele>
        <time>2018-08-02T15:09:45Z</time>
      </trkpt>
      <trkpt lat="48.52371" lon="7.02917">
        <ele>444.27</ele>
        <time>2018-08-02T15:10:07Z</time>
      </trkpt>
      <trkpt lat="48.52375" lon="7.02907">
        <ele>444.27</ele>
        <time>2018-08-02T15:10:19Z</time>
      </trkpt>
      <trkpt lat="48.52375" lon="7.02894">
        <ele>444.27</ele>
        <time>2018-08-02T15:10:35Z</time>
      </trkpt>
      <trkpt lat="48.52377" lon="7.02877">
        <ele>444.27</ele>
        <time>2018-08-02T15:10:48Z</time>
      </trkpt>
      <trkpt lat="48.5238" lon="7.02864">
        <ele>444.27</ele>
        <time>2018-08-02T15:11:00Z</time>
      </trkpt>
      <trkpt lat="48.52384" lon="7.02849">
        <ele>444.27</ele>
        <time>2018-08-02T15:11:11Z</time>
      </trkpt>
      <trkpt lat="48.52387" lon="7.02833">
        <ele>444.75</ele>
        <time>2018-08-02T15:11:25Z</time>
      </trkpt>
      <trkpt lat="48.5239" lon="7.02814">
        <ele>444.75</ele>
        <time>2018-08-02T15:11:37Z</time>
      </trkpt>
      <trkpt lat="48.52394" lon="7.02797">
        <ele>445.23</ele>
        <time>2018-08-02T15:11:51Z</time>
      </trkpt>
      <trkpt lat="48.52395" lon="7.02778">
        <ele>445.23</ele>
        <time>2018-08-02T15:12:02Z</time>
      </trkpt>
      <trkpt lat="48.52401" lon="7.02745">
        <ele>445.23</ele>
        <time>2018-08-02T15:12:21Z</time>
      </trkpt>
      <trkpt lat="48.524" lon="7.02718">
        <ele>445.23</ele>
        <time>2018-08-02T15:12:36Z</time>
      </trkpt>
      <trkpt lat="48.52397" lon="7.02697">
        <ele>444.75</ele>
        <time>2018-08-02T15:12:56Z</time>
      </trkpt>
      <trkpt lat="48.52382" lon="7.02685">
        <ele>444.75</ele>
        <time>2018-08-02T15:13:14Z</time>
      </trkpt>
      <trkpt lat="48.52386" lon="7.02678">
        <ele>444.75</ele>
        <time>2018-08-02T15:13:25Z</time>
      </trkpt>
      <trkpt lat="48.52393" lon="7.02678">
        <ele>444.75</ele>
        <time>2018-08-02T15:13:36Z</time>
      </trkpt>
      <trkpt lat="48.52403" lon="7.0268">
        <ele>444.75</ele>
        <time>2018-08-02T15:14:04Z</time>
      </trkpt>
      <trkpt lat="48.52415" lon="7.02683">
        <ele>444.75</ele>
        <time>2018-08-02T15:14:16Z</time>
      </trkpt>
      <trkpt lat="48.52427" lon="7.02674">
        <ele>444.27</ele>
        <time>2018-08-02T15:14:30Z</time>
      </trkpt>
      <trkpt lat="48.52437" lon="7.02665">
        <ele>443.79</ele>
        <time>2018-08-02T15:14:42Z</time>
      </trkpt>
      <trkpt lat="48.52448" lon="7.02653">
        <ele>444.27</ele>
        <time>2018-08-02T15:14:57Z</time>
      </trkpt>
      <trkpt lat="48.52452" lon="7.02638">
        <ele>444.27</ele>
        <time>2018-08-02T15:15:15Z</time>
      </trkpt>
      <trkpt lat="48.52452" lon="7.02619">
        <ele>444.27</ele>
        <time>2018-08-02T15:15:28Z</time>
      </trkpt>
      <trkpt lat="48.52451" lon="7.02594">
        <ele>443.79</ele>
        <time>2018-08-02T15:15:40Z</time>
      </trkpt>
      <trkpt lat="48.52447" lon="7.02578">
        <ele>444.27</ele>
        <time>2018-08-02T15:15:49Z</time>
      </trkpt>
      <trkpt lat="48.52441" lon="7.02565">
        <ele>443.79</ele>
        <time>2018-08-02T15:16:00Z</time>
      </trkpt>
      <trkpt lat="48.52433" lon="7.02547">
        <ele>443.79</ele>
        <time>2018-08-02T15:16:18Z</time>
      </trkpt>
      <trkpt lat="48.52427" lon="7.02533">
        <ele>443.79</ele>
        <time>2018-08-02T15:16:29Z</time>
      </trkpt>
      <trkpt lat="48.52424" lon="7.02515">
        <ele>443.79</ele>
        <time>2018-08-02T15:16:41Z</time>
      </trkpt>
      <trkpt lat="48.52422" lon="7.02498">
        <ele>443.79</ele>
        <time>2018-08-02T15:16:51Z</time>
      </trkpt>
      <trkpt lat="48.52421" lon="7.02479">
        <ele>443.79</ele>
        <time>2018-08-02T15:17:05Z</time>
      </trkpt>
      <trkpt lat="48.52421" lon="7.0246">
        <ele>443.79</ele>
        <time>2018-08-02T15:17:18Z</time>
      </trkpt>
      <trkpt lat="48.52422" lon="7.02441">
        <ele>443.31</ele>
        <time>2018-08-02T15:17:30Z</time>
      </trkpt>
      <trkpt lat="48.52427" lon="7.02422">
        <ele>443.79</ele>
        <time>2018-08-02T15:17:42Z</time>
      </trkpt>
      <trkpt lat="48.52431" lon="7.02404">
        <ele>442.82</ele>
        <time>2018-08-02T15:17:55Z</time>
      </trkpt>
      <trkpt lat="48.52437" lon="7.02388">
        <ele>442.82</ele>
        <time>2018-08-02T15:18:08Z</time>
      </trkpt>
      <trkpt lat="48.52443" lon="7.02374">
        <ele>442.82</ele>
        <time>2018-08-02T15:18:19Z</time>
      </trkpt>
      <trkpt lat="48.52449" lon="7.02361">
        <ele>442.34</ele>
        <time>2018-08-02T15:18:30Z</time>
      </trkpt>
      <trkpt lat="48.52458" lon="7.02349">
        <ele>442.34</ele>
        <time>2018-08-02T15:18:42Z</time>
      </trkpt>
      <trkpt lat="48.52466" lon="7.02335">
        <ele>442.34</ele>
        <time>2018-08-02T15:18:55Z</time>
      </trkpt>
      <trkpt lat="48.52476" lon="7.02325">
        <ele>442.34</ele>
        <time>2018-08-02T15:19:06Z</time>
      </trkpt>
      <trkpt lat="48.52484" lon="7.02311">
        <ele>442.34</ele>
        <time>2018-08-02T15:19:17Z</time>
      </trkpt>
      <trkpt lat="48.52489" lon="7.023">
        <ele>442.34</ele>
        <time>2018-08-02T15:19:30Z</time>
      </trkpt>
      <trkpt lat="48.52489" lon="7.02284">
        <ele>442.34</ele>
        <time>2018-08-02T15:19:41Z</time>
      </trkpt>
      <trkpt lat="48.52487" lon="7.02267">
        <ele>441.86</ele>
        <time>2018-08-02T15:19:53Z</time>
      </trkpt>
      <trkpt lat="48.5248" lon="7.02251">
        <ele>441.86</ele>
        <time>2018-08-02T15:20:05Z</time>
      </trkpt>
      <trkpt lat="48.52475" lon="7.02239">
        <ele>441.86</ele>
        <time>2018-08-02T15:20:17Z</time>
      </trkpt>
      <trkpt lat="48.52471" lon="7.02224">
        <ele>441.86</ele>
        <time>2018-08-02T15:20:34Z</time>
      </trkpt>
      <trkpt lat="48.52466" lon="7.02208">
        <ele>441.38</ele>
        <time>2018-08-02T15:20:46Z</time>
      </trkpt>
      <trkpt lat="48.52458" lon="7.02191">
        <ele>441.38</ele>
        <time>2018-08-02T15:21:00Z</time>
      </trkpt>
      <trkpt lat="48.52452" lon="7.02179">
        <ele>441.86</ele>
        <time>2018-08-02T15:21:11Z</time>
      </trkpt>
      <trkpt lat="48.5245" lon="7.02162">
        <ele>441.38</ele>
        <time>2018-08-02T15:21:22Z</time>
      </trkpt>
      <trkpt lat="48.52444" lon="7.02148">
        <ele>440.9</ele>
        <time>2018-08-02T15:21:35Z</time>
      </trkpt>
      <trkpt lat="48.52453" lon="7.02132">
        <ele>441.38</ele>
        <time>2018-08-02T15:21:47Z</time>
      </trkpt>
      <trkpt lat="48.52459" lon="7.02119">
        <ele>440.9</ele>
        <time>2018-08-02T15:21:58Z</time>
      </trkpt>
      <trkpt lat="48.52466" lon="7.02109">
        <ele>440.9</ele>
        <time>2018-08-02T15:22:10Z</time>
      </trkpt>
      <trkpt lat="48.52473" lon="7.02093">
        <ele>440.9</ele>
        <time>2018-08-02T15:22:21Z</time>
      </trkpt>
      <trkpt lat="48.52478" lon="7.02079">
        <ele>440.9</ele>
        <time>2018-08-02T15:22:31Z</time>
      </trkpt>
      <trkpt lat="48.52485" lon="7.02067">
        <ele>440.9</ele>
        <time>2018-08-02T15:22:43Z</time>
      </trkpt>
      <trkpt lat="48.52492" lon="7.02055">
        <ele>440.42</ele>
        <time>2018-08-02T15:22:55Z</time>
      </trkpt>
      <trkpt lat="48.52498" lon="7.0204">
        <ele>440.42</ele>
        <time>2018-08-02T15:23:07Z</time>
      </trkpt>
      <trkpt lat="48.52504" lon="7.02027">
        <ele>440.42</ele>
        <time>2018-08-02T15:23:19Z</time>
      </trkpt>
      <trkpt lat="48.52511" lon="7.02014">
        <ele>440.42</ele>
        <time>2018-08-02T15:23:31Z</time>
      </trkpt>
      <trkpt lat="48.52516" lon="7.02">
        <ele>440.42</ele>
        <time>2018-08-02T15:23:42Z</time>
      </trkpt>
      <trkpt lat="48.52518" lon="7.01986">
        <ele>439.94</ele>
        <time>2018-08-02T15:23:53Z</time>
      </trkpt>
      <trkpt lat="48.52518" lon="7.01968">
        <ele>439.94</ele>
        <time>2018-08-02T15:24:05Z</time>
      </trkpt>
      <trkpt lat="48.52518" lon="7.0195">
        <ele>439.94</ele>
        <time>2018-08-02T15:24:17Z</time>
      </trkpt>
      <trkpt lat="48.52514" lon="7.01934">
        <ele>439.94</ele>
        <time>2018-08-02T15:24:30Z</time>
      </trkpt>
      <trkpt lat="48.5251" lon="7.01917">
        <ele>439.94</ele>
        <time>2018-08-02T15:24:42Z</time>
      </trkpt>
      <trkpt lat="48.52504" lon="7.01905">
        <ele>439.46</ele>
        <time>2018-08-02T15:24:53Z</time>
      </trkpt>
      <trkpt lat="48.525" lon="7.01891">
        <ele>439.46</ele>
        <time>2018-08-02T15:25:03Z</time>
      </trkpt>
      <trkpt lat="48.5249" lon="7.01881">
        <ele>439.46</ele>
        <time>2018-08-02T15:25:16Z</time>
      </trkpt>
      <trkpt lat="48.5248" lon="7.01871">
        <ele>438.98</ele>
        <time>2018-08-02T15:25:29Z</time>
      </trkpt>
      <trkpt lat="48.52466" lon="7.01863">
        <ele>438.98</ele>
        <time>2018-08-02T15:25:41Z</time>
      </trkpt>
      <trkpt lat="48.52454" lon="7.0186">
        <ele>438.98</ele>
        <time>2018-08-02T15:25:53Z</time>
      </trkpt>
      <trkpt lat="48.52444" lon="7.01859">
        <ele>438.5</ele>
        <time>2018-08-02T15:26:05Z</time>
      </trkpt>
      <trkpt lat="48.52432" lon="7.01853">
        <ele>438.5</ele>
        <time>2018-08-02T15:26:19Z</time>
      </trkpt>
      <trkpt lat="48.52421" lon="7.01847">
        <ele>438.5</ele>
        <time>2018-08-02T15:26:36Z</time>
      </trkpt>
      <trkpt lat="48.5241" lon="7.01836">
        <ele>438.5</ele>
        <time>2018-08-02T15:26:57Z</time>
      </trkpt>
      <trkpt lat="48.5241" lon="7.01824">
        <ele>438.02</ele>
        <time>2018-08-02T15:27:13Z</time>
      </trkpt>
      <trkpt lat="48.52419" lon="7.01822">
        <ele>438.02</ele>
        <time>2018-08-02T15:27:24Z</time>
      </trkpt>
      <trkpt lat="48.52429" lon="7.01821">
        <ele>438.02</ele>
        <time>2018-08-02T15:27:36Z</time>
      </trkpt>
      <trkpt lat="48.52439" lon="7.01817">
        <ele>438.02</ele>
        <time>2018-08-02T15:27:47Z</time>
      </trkpt>
      <trkpt lat="48.52449" lon="7.01814">
        <ele>438.02</ele>
        <time>2018-08-02T15:27:57Z</time>
      </trkpt>
      <trkpt lat="48.5246" lon="7.01808">
        <ele>438.02</ele>
        <time>2018-08-02T15:28:07Z</time>
      </trkpt>
      <trkpt lat="48.5247" lon="7.01803">
        <ele>438.02</ele>
        <time>2018-08-02T15:28:17Z</time>
      </trkpt>
      <trkpt lat="48.5248" lon="7.01794">
        <ele>437.54</ele>
        <time>2018-08-02T15:28:29Z</time>
      </trkpt>
      <trkpt lat="48.5249" lon="7.01792">
        <ele>437.54</ele>
        <time>2018-08-02T15:28:42Z</time>
      </trkpt>
      <trkpt lat="48.52504" lon="7.01789">
        <ele>437.54</ele>
        <time>2018-08-02T15:28:54Z</time>
      </trkpt>
      <trkpt lat="48.52512" lon="7.01782">
        <ele>437.54</ele>
        <time>2018-08-02T15:29:05Z</time>
      </trkpt>
      <trkpt lat="48.52522" lon="7.01775">
        <ele>437.06</ele>
        <time>2018-08-02T15:29:17Z</time>
      </trkpt>
      <trkpt lat="48.52532" lon="7.01767">
        <ele>437.06</ele>
        <time>2018-08-02T15:29:29Z</time>
      </trkpt>
      <trkpt lat="48.52541" lon="7.01757">
        <ele>437.06</ele>
        <time>2018-08-02T15:29:50Z</time>
      </trkpt>
      <trkpt lat="48.52548" lon="7.01743">
        <ele>437.06</ele>
        <time>2018-08-02T15:30:02Z</time>
      </trkpt>
      <trkpt lat="48.52551" lon="7.01728">
        <ele>436.58</ele>
        <time>2018-08-02T15:30:18Z</time>
      </trkpt>
      <trkpt lat="48.52549" lon="7.01707">
        <ele>437.06</ele>
        <time>2018-08-02T15:30:35Z</time>
      </trkpt>
      <trkpt lat="48.52551" lon="7.01684">
        <ele>437.06</ele>
        <time>2018-08-02T15:30:48Z</time>
      </trkpt>
      <trkpt lat="48.5255" lon="7.01664">
        <ele>436.58</ele>
        <time>2018-08-02T15:31:03Z</time>
      </trkpt>
      <trkpt lat="48.52548" lon="7.01644">
        <ele>437.06</ele>
        <time>2018-08-02T15:31:18Z</time>
      </trkpt>
      <trkpt lat="48.5255" lon="7.01628">
        <ele>437.06</ele>
        <time>2018-08-02T15:31:31Z</time>
      </trkpt>
      <trkpt lat="48.52551" lon="7.01604">
        <ele>437.06</ele>
        <time>2018-08-02T15:31:42Z</time>
      </trkpt>
      <trkpt lat="48.52549" lon="7.01589">
        <ele>437.06</ele>
        <time>2018-08-02T15:31:54Z</time>
      </trkpt>
      <trkpt lat="48.52546" lon="7.01568">
        <ele>437.06</ele>
        <time>2018-08-02T15:32:06Z</time>
      </trkpt>
      <trkpt lat="48.52543" lon="7.01554">
        <ele>436.58</ele>
        <time>2018-08-02T15:32:18Z</time>
      </trkpt>
      <trkpt lat="48.52539" lon="7.01538">
        <ele>436.58</ele>
        <time>2018-08-02T15:32:30Z</time>
      </trkpt>
      <trkpt lat="48.52534" lon="7.01523">
        <ele>436.58</ele>
        <time>2018-08-02T15:32:42Z</time>
      </trkpt>
      <trkpt lat="48.52531" lon="7.01508">
        <ele>436.58</ele>
        <time>2018-08-02T15:32:59Z</time>
      </trkpt>
      <trkpt lat="48.52522" lon="7.01499">
        <ele>436.58</ele>
        <time>2018-08-02T15:33:13Z</time>
      </trkpt>
      <trkpt lat="48.52514" lon="7.01484">
        <ele>436.58</ele>
        <time>2018-08-02T15:33:26Z</time>
      </trkpt>
      <trkpt lat="48.52504" lon="7.01471">
        <ele>436.58</ele>
        <time>2018-08-02T15:33:40Z</time>
      </trkpt>
      <trkpt lat="48.52502" lon="7.01458">
        <ele>436.58</ele>
        <time>2018-08-02T15:33:51Z</time>
      </trkpt>
      <trkpt lat="48.52501" lon="7.01445">
        <ele>436.58</ele>
        <time>2018-08-02T15:34:03Z</time>
      </trkpt>
      <trkpt lat="48.52507" lon="7.01433">
        <ele>436.1</ele>
        <time>2018-08-02T15:34:14Z</time>
      </trkpt>
      <trkpt lat="48.52512" lon="7.01422">
        <ele>436.1</ele>
        <time>2018-08-02T15:34:25Z</time>
      </trkpt>
      <trkpt lat="48.52519" lon="7.01412">
        <ele>436.1</ele>
        <time>2018-08-02T15:34:36Z</time>
      </trkpt>
      <trkpt lat="48.52527" lon="7.01407">
        <ele>436.1</ele>
        <time>2018-08-02T15:34:52Z</time>
      </trkpt>
      <trkpt lat="48.52539" lon="7.01406">
        <ele>436.1</ele>
        <time>2018-08-02T15:35:12Z</time>
      </trkpt>
      <trkpt lat="48.52551" lon="7.01405">
        <ele>435.61</ele>
        <time>2018-08-02T15:35:26Z</time>
      </trkpt>
      <trkpt lat="48.5256" lon="7.01406">
        <ele>435.61</ele>
        <time>2018-08-02T15:35:38Z</time>
      </trkpt>
      <trkpt lat="48.52571" lon="7.01403">
        <ele>435.61</ele>
        <time>2018-08-02T15:35:52Z</time>
      </trkpt>
      <trkpt lat="48.52583" lon="7.01399">
        <ele>435.13</ele>
        <time>2018-08-02T15:36:05Z</time>
      </trkpt>
      <trkpt lat="48.52589" lon="7.01386">
        <ele>435.13</ele>
        <time>2018-08-02T15:36:19Z</time>
      </trkpt>
      <trkpt lat="48.52596" lon="7.01368">
        <ele>435.13</ele>
        <time>2018-08-02T15:36:30Z</time>
      </trkpt>
      <trkpt lat="48.52599" lon="7.01353">
        <ele>435.13</ele>
        <time>2018-08-02T15:36:41Z</time>
      </trkpt>
      <trkpt lat="48.52603" lon="7.01335">
        <ele>435.61</ele>
        <time>2018-08-02T15:36:55Z</time>
      </trkpt>
      <trkpt lat="48.5261" lon="7.01319">
        <ele>435.61</ele>
        <time>2018-08-02T15:37:06Z</time>
      </trkpt>
      <trkpt lat="48.52616" lon="7.01308">
        <ele>435.13</ele>
        <time>2018-08-02T15:37:17Z</time>
      </trkpt>
      <trkpt lat="48.52626" lon="7.01295">
        <ele>435.13</ele>
        <time>2018-08-02T15:37:31Z</time>
      </trkpt>
      <trkpt lat="48.52633" lon="7.01279">
        <ele>435.13</ele>
        <time>2018-08-02T15:37:44Z</time>
      </trkpt>
      <trkpt lat="48.5264" lon="7.01265">
        <ele>435.13</ele>
        <time>2018-08-02T15:37:55Z</time>
      </trkpt>
      <trkpt lat="48.52647" lon="7.01252">
        <ele>434.65</ele>
        <time>2018-08-02T15:38:08Z</time>
      </trkpt>
      <trkpt lat="48.52655" lon="7.01238">
        <ele>434.17</ele>
        <time>2018-08-02T15:38:31Z</time>
      </trkpt>
      <trkpt lat="48.52661" lon="7.01224">
        <ele>434.65</ele>
        <time>2018-08-02T15:38:41Z</time>
      </trkpt>
      <trkpt lat="48.52669" lon="7.01214">
        <ele>434.17</ele>
        <time>2018-08-02T15:38:51Z</time>
      </trkpt>
      <trkpt lat="48.52677" lon="7.01205">
        <ele>434.17</ele>
        <time>2018-08-02T15:39:02Z</time>
      </trkpt>
      <trkpt lat="48.52685" lon="7.01191">
        <ele>434.17</ele>
        <time>2018-08-02T15:39:17Z</time>
      </trkpt>
      <trkpt lat="48.52683" lon="7.01172">
        <ele>433.21</ele>
        <time>2018-08-02T15:40:04Z</time>
      </trkpt>
      <trkpt lat="48.52678" lon="7.01161">
        <ele>434.17</ele>
        <time>2018-08-02T15:40:28Z</time>
      </trkpt>
      <trkpt lat="48.52677" lon="7.01152">
        <ele>433.69</ele>
        <time>2018-08-02T15:40:47Z</time>
      </trkpt>
      <trkpt lat="48.52679" lon="7.01152">
        <ele>430.81</ele>
        <time>2018-08-02T15:41:03Z</time>
      </trkpt>
      <trkpt lat="48.52683" lon="7.0115">
        <ele>428.4</ele>
        <time>2018-08-02T15:41:18Z</time>
      </trkpt>
      <trkpt lat="48.52682" lon="7.01135">
        <ele>426</ele>
        <time>2018-08-02T15:41:32Z</time>
      </trkpt>
      <trkpt lat="48.52677" lon="7.01123">
        <ele>424.08</ele>
        <time>2018-08-02T15:41:44Z</time>
      </trkpt>
      <trkpt lat="48.52673" lon="7.01109">
        <ele>422.16</ele>
        <time>2018-08-02T15:41:59Z</time>
      </trkpt>
      <trkpt lat="48.52665" lon="7.01094">
        <ele>419.75</ele>
        <time>2018-08-02T15:42:16Z</time>
      </trkpt>
      <trkpt lat="48.52659" lon="7.01088">
        <ele>417.35</ele>
        <time>2018-08-02T15:42:31Z</time>
      </trkpt>
      <trkpt lat="48.52666" lon="7.01097">
        <ele>415.91</ele>
        <time>2018-08-02T15:42:45Z</time>
      </trkpt>
      <trkpt lat="48.52675" lon="7.01104">
        <ele>413.98</ele>
        <time>2018-08-02T15:42:57Z</time>
      </trkpt>
      <trkpt lat="48.52686" lon="7.01113">
        <ele>412.06</ele>
        <time>2018-08-02T15:43:12Z</time>
      </trkpt>
      <trkpt lat="48.52696" lon="7.01117">
        <ele>410.62</ele>
        <time>2018-08-02T15:43:29Z</time>
      </trkpt>
      <trkpt lat="48.52711" lon="7.01127">
        <ele>408.7</ele>
        <time>2018-08-02T15:43:49Z</time>
      </trkpt>
      <trkpt lat="48.52723" lon="7.01134">
        <ele>405.81</ele>
        <time>2018-08-02T15:44:05Z</time>
      </trkpt>
      <trkpt lat="48.5273" lon="7.01143">
        <ele>402.93</ele>
        <time>2018-08-02T15:44:19Z</time>
      </trkpt>
      <trkpt lat="48.52739" lon="7.01152">
        <ele>399.57</ele>
        <time>2018-08-02T15:44:36Z</time>
      </trkpt>
      <trkpt lat="48.52753" lon="7.01158">
        <ele>397.64</ele>
        <time>2018-08-02T15:44:50Z</time>
      </trkpt>
      <trkpt lat="48.52761" lon="7.01158">
        <ele>396.2</ele>
        <time>2018-08-02T15:45:03Z</time>
      </trkpt>
      <trkpt lat="48.52768" lon="7.01147">
        <ele>395.72</ele>
        <time>2018-08-02T15:45:15Z</time>
      </trkpt>
      <trkpt lat="48.52763" lon="7.01135">
        <ele>395.72</ele>
        <time>2018-08-02T15:46:48Z</time>
      </trkpt>
      <trkpt lat="48.52761" lon="7.01134">
        <ele>394.28</ele>
        <time>2018-08-02T15:47:58Z</time>
      </trkpt>
      <trkpt lat="48.52766" lon="7.0114">
        <ele>392.84</ele>
        <time>2018-08-02T15:49:27Z</time>
      </trkpt>
      <trkpt lat="48.52771" lon="7.0114">
        <ele>391.87</ele>
        <time>2018-08-02T15:49:52Z</time>
      </trkpt>
    </trkseg>
  </trk>
</gpx>